Wetterdaten: Dienstag, 09.02.2021
Datum Zeit Temp. Aussen Temp. o. S. Temp +5cm Feuchte Auss Luftdruck Regen Sonnenschein Regendauer Solar Windben Empfang
09.02.2021 00:00 -7,1 C -7,8 C -9,4 C 89 % 1003,9 hPa 0,0 l/m 0 min 0 min 0 W/m 0,0 km/h (0 Bft) 100,00 %
09.02.2021 00:02 -7,1 C -7,8 C -9,4 C 89 % 1003,9 hPa 0,0 l/m 0 min 0 min 0 W/m 0,0 km/h (0 Bft) 11,11 %
09.02.2021 00:04 -7,1 C -7,8 C -9,4 C 89 % 1003,9 hPa 0,0 l/m 0 min 0 min 0 W/m 0,0 km/h (0 Bft) 90,24 %
09.02.2021 00:08 -7,1 C -7,8 C -9,4 C 89 % 1004,0 hPa 0,0 l/m 0 min 0 min 0 W/m 0,0 km/h (0 Bft) 100,00 %
09.02.2021 00:10 -7,1 C -7,8 C -9,4 C 89 % 1004,0 hPa 0,0 l/m 0 min 0 min 0 W/m 0,0 km/h (0 Bft) 100,00 %
09.02.2021 00:12 -7,2 C -7,8 C -9,4 C 89 % 1004,0 hPa 0,0 l/m 0 min 0 min 0 W/m 0,0 km/h (0 Bft) 97,87 %
09.02.2021 00:14 -7,2 C -7,8 C -9,4 C 89 % 1004,0 hPa 0,0 l/m 0 min 0 min 0 W/m 0,0 km/h (0 Bft) 97,87 %
09.02.2021 00:16 -7,2 C -7,8 C -9,4 C 89 % 1004,1 hPa 0,0 l/m 0 min 0 min 0 W/m 0,0 km/h (0 Bft) 100,00 %
09.02.2021 00:18 -7,2 C -7,8 C -9,4 C 89 % 1004,1 hPa 0,0 l/m 0 min 0 min 0 W/m 0,0 km/h (0 Bft) 100,00 %
09.02.2021 00:20 -7,2 C -7,8 C -9,4 C 89 % 1004,0 hPa 0,0 l/m 0 min 0 min 0 W/m 0,0 km/h (0 Bft) 100,00 %
09.02.2021 00:22 -7,2 C -7,8 C -9,4 C 89 % 1004,1 hPa 0,0 l/m 0 min 0 min 0 W/m 0,0 km/h (0 Bft) 100,00 %
09.02.2021 00:24 -7,2 C -7,8 C -9,4 C 89 % 1004,1 hPa 0,0 l/m 0 min 0 min 0 W/m 0,0 km/h (0 Bft) 97,87 %
09.02.2021 00:26 -7,2 C -7,8 C -9,4 C 89 % 1004,1 hPa 0,0 l/m 0 min 0 min 0 W/m 0,0 km/h (0 Bft) 100,00 %
09.02.2021 00:28 -7,2 C -7,8 C -9,4 C 89 % 1004,1 hPa 0,0 l/m 0 min 0 min 0 W/m 0,0 km/h (0 Bft) 97,83 %
09.02.2021 00:30 -7,3 C -7,8 C -9,4 C 89 % 1004,2 hPa 0,0 l/m 0 min 0 min 0 W/m 0,0 km/h (0 Bft) 100,00 %
09.02.2021 00:32 -7,2 C -7,8 C -9,4 C 89 % 1004,1 hPa 0,0 l/m 0 min 0 min 0 W/m 0,0 km/h (0 Bft) 100,00 %
09.02.2021 00:34 -7,3 C -7,8 C -9,4 C 89 % 1004,2 hPa 0,0 l/m 0 min 0 min 0 W/m 0,0 km/h (0 Bft) 95,74 %
09.02.2021 00:36 -7,3 C -7,8 C -9,4 C 89 % 1004,1 hPa 0,0 l/m 0 min 0 min 0 W/m 0,0 km/h (0 Bft) 100,00 %
09.02.2021 00:38 -7,3 C -7,8 C -9,4 C 89 % 1004,2 hPa 0,0 l/m 0 min 0 min 0 W/m 0,0 km/h (0 Bft) 95,74 %
09.02.2021 00:40 -7,3 C -7,8 C -9,4 C 89 % 1004,2 hPa 0,0 l/m 0 min 0 min 0 W/m 0,0 km/h (0 Bft) 100,00 %
09.02.2021 00:42 -7,3 C -7,8 C -9,4 C 89 % 1004,2 hPa 0,0 l/m 0 min 0 min 0 W/m 3,2 km/h (1 Bft) 100,00 %
09.02.2021 00:44 -7,3 C -7,8 C -9,4 C 89 % 1004,2 hPa 0,0 l/m 0 min 0 min 0 W/m 0,0 km/h (0 Bft) 97,87 %
09.02.2021 00:46 -7,3 C -7,8 C -9,4 C 89 % 1004,3 hPa 0,0 l/m 0 min 0 min 0 W/m 0,0 km/h (0 Bft) 100,00 %
09.02.2021 00:48 -7,3 C -7,8 C -9,4 C 89 % 1004,3 hPa 0,0 l/m 0 min 0 min 0 W/m 0,0 km/h (0 Bft) 100,00 %
09.02.2021 00:50 -7,3 C -7,8 C -9,4 C 89 % 1004,3 hPa 0,0 l/m 0 min 0 min 0 W/m 6,4 km/h (2 Bft) 100,00 %
09.02.2021 00:52 -7,3 C -7,8 C -9,4 C 89 % 1004,3 hPa 0,0 l/m 0 min 0 min 0 W/m 0,0 km/h (0 Bft) 100,00 %
09.02.2021 00:54 -7,3 C -7,8 C -9,4 C 89 % 1004,3 hPa 0,0 l/m 0 min 0 min 0 W/m 0,0 km/h (0 Bft) 100,00 %
09.02.2021 00:56 -7,3 C -7,8 C -9,4 C 89 % 1004,3 hPa 0,0 l/m 0 min 0 min 0 W/m 3,2 km/h (1 Bft) 97,87 %
09.02.2021 00:58 -7,3 C -7,8 C -9,4 C 89 % 1004,3 hPa 0,0 l/m 0 min 0 min 0 W/m 0,0 km/h (0 Bft) 100,00 %
09.02.2021 01:00 -7,2 C -7,8 C -9,4 C 89 % 1004,3 hPa 0,0 l/m 0 min 0 min 0 W/m 0,0 km/h (0 Bft) 97,87 %
09.02.2021 01:02 -7,3 C -7,8 C -9,4 C 89 % 1004,3 hPa 0,0 l/m 0 min 0 min 0 W/m 0,0 km/h (0 Bft) 97,83 %
09.02.2021 01:04 -7,2 C -7,8 C -9,4 C 89 % 1004,4 hPa 0,0 l/m 0 min 0 min 0 W/m 0,0 km/h (0 Bft) 97,87 %
09.02.2021 01:06 -7,3 C -7,8 C -9,4 C 89 % 1004,3 hPa 0,0 l/m 0 min 0 min 0 W/m 0,0 km/h (0 Bft) 95,74 %
09.02.2021 01:08 -7,2 C -7,8 C -9,4 C 89 % 1004,4 hPa 0,0 l/m 0 min 0 min 0 W/m 0,0 km/h (0 Bft) 93,62 %
09.02.2021 01:10 -7,2 C -7,8 C -9,4 C 89 % 1004,4 hPa 0,0 l/m 0 min 0 min 0 W/m 0,0 km/h (0 Bft) 95,74 %
09.02.2021 01:12 -7,2 C -7,8 C -9,4 C 89 % 1004,4 hPa 0,0 l/m 0 min 0 min 0 W/m 0,0 km/h (0 Bft) 95,74 %
09.02.2021 01:14 -7,2 C -7,8 C -9,4 C 89 % 1004,3 hPa 0,0 l/m 0 min 0 min 0 W/m 0,0 km/h (0 Bft) 97,83 %
09.02.2021 01:16 -7,2 C -7,8 C -9,4 C 89 % 1004,4 hPa 0,0 l/m 0 min 0 min 0 W/m 0,0 km/h (0 Bft) 97,87 %
09.02.2021 01:18 -7,2 C -7,8 C -9,4 C 89 % 1004,5 hPa 0,0 l/m 0 min 0 min 0 W/m 0,0 km/h (0 Bft) 97,87 %
09.02.2021 01:20 -7,2 C -7,8 C -9,4 C 89 % 1004,5 hPa 0,0 l/m 0 min 0 min 0 W/m 0,0 km/h (0 Bft) 97,87 %
09.02.2021 01:22 -7,2 C -7,8 C -9,4 C 90 % 1004,4 hPa 0,0 l/m 0 min 0 min 0 W/m 3,2 km/h (1 Bft) 97,87 %
09.02.2021 01:24 -7,2 C -7,8 C -9,4 C 90 % 1004,4 hPa 0,0 l/m 0 min 0 min 0 W/m 3,2 km/h (1 Bft) 97,62 %
09.02.2021 01:26 -7,2 C -7,8 C -9,4 C 90 % 1004,5 hPa 0,0 l/m 0 min 0 min 0 W/m 0,0 km/h (0 Bft) 97,87 %
09.02.2021 01:28 -7,2 C -7,8 C -9,4 C 90 % 1004,5 hPa 0,0 l/m 0 min 0 min 0 W/m 0,0 km/h (0 Bft) 93,48 %
09.02.2021 01:30 -7,2 C -7,8 C -9,4 C 90 % 1004,5 hPa 0,0 l/m 0 min 0 min 0 W/m 0,0 km/h (0 Bft) 95,74 %
09.02.2021 01:32 -7,2 C -7,8 C -9,4 C 90 % 1004,5 hPa 0,0 l/m 0 min 0 min 0 W/m 0,0 km/h (0 Bft) 95,83 %
09.02.2021 01:34 -7,3 C -7,8 C -9,4 C 90 % 1004,5 hPa 0,0 l/m 0 min 0 min 0 W/m 0,0 km/h (0 Bft) 97,87 %
09.02.2021 01:36 -7,3 C -7,8 C -9,4 C 90 % 1004,5 hPa 0,0 l/m 0 min 0 min 0 W/m 0,0 km/h (0 Bft) 97,96 %
09.02.2021 01:38 -7,3 C -7,8 C -9,4 C 90 % 1004,6 hPa 0,0 l/m 0 min 0 min 0 W/m 0,0 km/h (0 Bft) 95,65 %
09.02.2021 01:40 -7,3 C -7,8 C -9,4 C 90 % 1004,6 hPa 0,0 l/m 0 min 0 min 0 W/m 0,0 km/h (0 Bft) 95,74 %
09.02.2021 01:42 -7,4 C -7,8 C -9,4 C 89 % 1004,6 hPa 0,0 l/m 0 min 0 min 0 W/m 0,0 km/h (0 Bft) 95,74 %
09.02.2021 01:44 -7,4 C -7,8 C -9,4 C 89 % 1004,6 hPa 0,0 l/m 0 min 0 min 0 W/m 9,7 km/h (2 Bft) 93,62 %
09.02.2021 01:46 -7,4 C -7,8 C -9,4 C 89 % 1004,6 hPa 0,0 l/m 0 min 0 min 0 W/m 0,0 km/h (0 Bft) 93,62 %
09.02.2021 01:48 -7,4 C -7,8 C -9,4 C 89 % 1004,6 hPa 0,0 l/m 0 min 0 min 0 W/m 0,0 km/h (0 Bft) 95,74 %
09.02.2021 01:50 -7,5 C -7,8 C -9,4 C 89 % 1004,6 hPa 0,0 l/m 0 min 0 min 0 W/m 0,0 km/h (0 Bft) 95,65 %
09.02.2021 01:52 -7,5 C -7,8 C -9,4 C 89 % 1004,6 hPa 0,0 l/m 0 min 0 min 0 W/m 0,0 km/h (0 Bft) 95,74 %
09.02.2021 01:54 -7,5 C -7,8 C -10,0 C 89 % 1004,6 hPa 0,0 l/m 0 min 0 min 0 W/m 0,0 km/h (0 Bft) 97,87 %
09.02.2021 01:56 -7,5 C -7,8 C -10,0 C 89 % 1004,7 hPa 0,0 l/m 0 min 0 min 0 W/m 0,0 km/h (0 Bft) 93,62 %
09.02.2021 01:58 -7,5 C -8,3 C -10,0 C 89 % 1004,7 hPa 0,0 l/m 0 min 0 min 0 W/m 0,0 km/h (0 Bft) 97,87 %
09.02.2021 02:00 -7,6 C -8,3 C -10,0 C 89 % 1004,7 hPa 0,0 l/m 0 min 0 min 0 W/m 0,0 km/h (0 Bft) 97,87 %
09.02.2021 02:02 -7,6 C -8,3 C -10,0 C 89 % 1004,7 hPa 0,0 l/m 0 min 0 min 0 W/m 0,0 km/h (0 Bft) 97,83 %
09.02.2021 02:04 -7,6 C -8,3 C -10,0 C 89 % 1004,7 hPa 0,0 l/m 0 min 0 min 0 W/m 0,0 km/h (0 Bft) 93,62 %
09.02.2021 02:06 -7,6 C -8,3 C -10,0 C 89 % 1004,7 hPa 0,0 l/m 0 min 0 min 0 W/m 0,0 km/h (0 Bft) 97,87 %
09.02.2021 02:08 -7,6 C -8,3 C -10,0 C 89 % 1004,6 hPa 0,0 l/m 0 min 0 min 0 W/m 0,0 km/h (0 Bft) 97,87 %
09.02.2021 02:10 -7,6 C -8,3 C -10,0 C 89 % 1004,7 hPa 0,0 l/m 0 min 0 min 0 W/m 0,0 km/h (0 Bft) 97,87 %
09.02.2021 02:12 -7,6 C -8,3 C -10,0 C 89 % 1004,7 hPa 0,0 l/m 0 min 0 min 0 W/m 0,0 km/h (0 Bft) 95,74 %
09.02.2021 02:14 -7,6 C -8,3 C -10,0 C 89 % 1004,7 hPa 0,0 l/m 0 min 0 min 0 W/m 0,0 km/h (0 Bft) 97,83 %
09.02.2021 02:16 -7,6 C -8,3 C -10,0 C 89 % 1004,7 hPa 0,0 l/m 0 min 0 min 0 W/m 0,0 km/h (0 Bft) 95,74 %
09.02.2021 02:18 -7,7 C -8,3 C -10,0 C 89 % 1004,7 hPa 0,0 l/m 0 min 0 min 0 W/m 0,0 km/h (0 Bft) 100,00 %
09.02.2021 02:20 -7,7 C -8,3 C -10,0 C 89 % 1004,7 hPa 0,0 l/m 0 min 0 min 0 W/m 0,0 km/h (0 Bft) 97,87 %
09.02.2021 02:22 -7,7 C -8,3 C -10,0 C 89 % 1004,7 hPa 0,0 l/m 0 min 0 min 0 W/m 0,0 km/h (0 Bft) 97,87 %
09.02.2021 02:24 -7,7 C -8,3 C -10,0 C 89 % 1004,8 hPa 0,0 l/m 0 min 0 min 0 W/m 0,0 km/h (0 Bft) 100,00 %
09.02.2021 02:26 -7,8 C -8,3 C -10,0 C 89 % 1004,7 hPa 0,0 l/m 0 min 0 min 0 W/m 0,0 km/h (0 Bft) 100,00 %
09.02.2021 02:28 -7,8 C -8,3 C -10,0 C 89 % 1004,7 hPa 0,0 l/m 0 min 0 min 0 W/m 0,0 km/h (0 Bft) 95,74 %
09.02.2021 02:30 -7,8 C -8,3 C -10,0 C 89 % 1004,7 hPa 0,0 l/m 0 min 0 min 0 W/m 0,0 km/h (0 Bft) 97,87 %
09.02.2021 02:32 -7,9 C -8,3 C -10,0 C 89 % 1004,7 hPa 0,0 l/m 0 min 0 min 0 W/m 0,0 km/h (0 Bft) 100,00 %
09.02.2021 02:34 -7,9 C -8,3 C -10,0 C 89 % 1004,8 hPa 0,0 l/m 0 min 0 min 0 W/m 0,0 km/h (0 Bft) 100,00 %
09.02.2021 02:36 -7,9 C -8,3 C -10,0 C 89 % 1004,8 hPa 0,0 l/m 0 min 0 min 0 W/m 0,0 km/h (0 Bft) 97,87 %
09.02.2021 02:38 -7,9 C -8,3 C -10,0 C 89 % 1004,8 hPa 0,0 l/m 0 min 0 min 0 W/m 0,0 km/h (0 Bft) 100,00 %
09.02.2021 02:40 -7,9 C -8,3 C -10,0 C 89 % 1004,8 hPa 0,0 l/m 0 min 0 min 0 W/m 0,0 km/h (0 Bft) 100,00 %
09.02.2021 02:42 -7,9 C -8,3 C -10,0 C 89 % 1004,8 hPa 0,0 l/m 0 min 0 min 0 W/m 0,0 km/h (0 Bft) 100,00 %
09.02.2021 02:44 -7,9 C -8,3 C -10,0 C 90 % 1004,8 hPa 0,0 l/m 0 min 0 min 0 W/m 0,0 km/h (0 Bft) 100,00 %
09.02.2021 02:46 -7,9 C -8,3 C -10,0 C 90 % 1004,8 hPa 0,0 l/m 0 min 0 min 0 W/m 0,0 km/h (0 Bft) 100,00 %
09.02.2021 02:48 -8,0 C -8,3 C -10,0 C 90 % 1004,8 hPa 0,0 l/m 0 min 0 min 0 W/m 0,0 km/h (0 Bft) 100,00 %
09.02.2021 02:50 -8,0 C -8,3 C -10,0 C 90 % 1004,9 hPa 0,0 l/m 0 min 0 min 0 W/m 0,0 km/h (0 Bft) 100,00 %
09.02.2021 02:52 -8,0 C -8,3 C -10,0 C 89 % 1004,8 hPa 0,0 l/m 0 min 0 min 0 W/m 0,0 km/h (0 Bft) 100,00 %
09.02.2021 02:54 -8,0 C -8,3 C -10,5 C 89 % 1004,9 hPa 0,0 l/m 0 min 0 min 0 W/m 0,0 km/h (0 Bft) 100,00 %
09.02.2021 02:56 -8,0 C -8,3 C -10,5 C 89 % 1004,9 hPa 0,0 l/m 0 min 0 min 0 W/m 0,0 km/h (0 Bft) 100,00 %
09.02.2021 02:58 -8,0 C -8,3 C -10,5 C 89 % 1004,9 hPa 0,0 l/m 0 min 0 min 0 W/m 0,0 km/h (0 Bft) 100,00 %
09.02.2021 03:00 -8,1 C -8,3 C -10,5 C 89 % 1005,0 hPa 0,0 l/m 0 min 0 min 0 W/m 0,0 km/h (0 Bft) 100,00 %
09.02.2021 03:02 -8,1 C -8,3 C -10,5 C 89 % 1005,0 hPa 0,0 l/m 0 min 0 min 0 W/m 0,0 km/h (0 Bft) 100,00 %
09.02.2021 03:04 -8,1 C -8,3 C -10,5 C 89 % 1005,0 hPa 0,0 l/m 0 min 0 min 0 W/m 0,0 km/h (0 Bft) 97,96 %
09.02.2021 03:06 -8,1 C -8,9 C -10,5 C 89 % 1005,0 hPa 0,0 l/m 0 min 0 min 0 W/m 0,0 km/h (0 Bft) 100,00 %
09.02.2021 03:08 -8,1 C -8,9 C -10,5 C 89 % 1005,1 hPa 0,0 l/m 0 min 0 min 0 W/m 0,0 km/h (0 Bft) 100,00 %
09.02.2021 03:10 -8,1 C -8,9 C -10,5 C 89 % 1005,0 hPa 0,0 l/m 0 min 0 min 0 W/m 0,0 km/h (0 Bft) 95,74 %
09.02.2021 03:12 -8,1 C -8,3 C -10,5 C 89 % 1005,0 hPa 0,0 l/m 0 min 0 min 0 W/m 0,0 km/h (0 Bft) 100,00 %
09.02.2021 03:14 -8,1 C -8,9 C -10,5 C 89 % 1005,0 hPa 0,0 l/m 0 min 0 min 0 W/m 0,0 km/h (0 Bft) 100,00 %
09.02.2021 03:16 -8,1 C -8,9 C -10,5 C 89 % 1005,1 hPa 0,0 l/m 0 min 0 min 0 W/m 0,0 km/h (0 Bft) 100,00 %
09.02.2021 03:18 -8,2 C -8,9 C -10,5 C 89 % 1005,0 hPa 0,0 l/m 0 min 0 min 0 W/m 0,0 km/h (0 Bft) 97,87 %
09.02.2021 03:20 -8,2 C -8,3 C -10,5 C 89 % 1005,0 hPa 0,0 l/m 0 min 0 min 0 W/m 0,0 km/h (0 Bft) 100,00 %
09.02.2021 03:22 -8,2 C -8,9 C -10,5 C 89 % 1005,1 hPa 0,0 l/m 0 min 0 min 0 W/m 0,0 km/h (0 Bft) 100,00 %
09.02.2021 03:24 -8,2 C -8,9 C -10,5 C 89 % 1005,0 hPa 0,0 l/m 0 min 0 min 0 W/m 0,0 km/h (0 Bft) 100,00 %
09.02.2021 03:26 -8,2 C -8,9 C -10,5 C 89 % 1005,0 hPa 0,0 l/m 0 min 0 min 0 W/m 0,0 km/h (0 Bft) 97,87 %
09.02.2021 03:28 -8,2 C -8,9 C -10,5 C 89 % 1005,1 hPa 0,0 l/m 0 min 0 min 0 W/m 0,0 km/h (0 Bft) 100,00 %
09.02.2021 03:30 -8,2 C -8,9 C -10,5 C 89 % 1005,0 hPa 0,0 l/m 0 min 0 min 0 W/m 0,0 km/h (0 Bft) 100,00 %
09.02.2021 03:32 -8,2 C -8,9 C -10,5 C 89 % 1005,1 hPa 0,0 l/m 0 min 0 min 0 W/m 0,0 km/h (0 Bft) 100,00 %
09.02.2021 03:34 -8,2 C -8,9 C -10,5 C 89 % 1005,1 hPa 0,0 l/m 0 min 0 min 0 W/m 0,0 km/h (0 Bft) 100,00 %
09.02.2021 03:36 -8,2 C -8,9 C -10,5 C 89 % 1005,1 hPa 0,0 l/m 0 min 0 min 0 W/m 0,0 km/h (0 Bft) 97,87 %
09.02.2021 03:38 -8,2 C -8,9 C -10,5 C 89 % 1005,1 hPa 0,0 l/m 0 min 0 min 0 W/m 0,0 km/h (0 Bft) 100,00 %
09.02.2021 03:40 -8,2 C -8,9 C -10,5 C 89 % 1005,1 hPa 0,0 l/m 0 min 0 min 0 W/m 0,0 km/h (0 Bft) 100,00 %
09.02.2021 03:42 -8,3 C -8,9 C -10,5 C 89 % 1005,1 hPa 0,0 l/m 0 min 0 min 0 W/m 0,0 km/h (0 Bft) 100,00 %
09.02.2021 03:44 -8,3 C -8,9 C -10,5 C 89 % 1005,1 hPa 0,0 l/m 0 min 0 min 0 W/m 0,0 km/h (0 Bft) 97,87 %
09.02.2021 03:46 -8,3 C -8,9 C -10,5 C 89 % 1005,1 hPa 0,0 l/m 0 min 0 min 0 W/m 0,0 km/h (0 Bft) 100,00 %
09.02.2021 03:48 -8,3 C -8,9 C -10,5 C 89 % 1005,2 hPa 0,0 l/m 0 min 0 min 0 W/m 0,0 km/h (0 Bft) 95,74 %
09.02.2021 03:50 -8,3 C -8,9 C -10,5 C 89 % 1005,1 hPa 0,0 l/m 0 min 0 min 0 W/m 0,0 km/h (0 Bft) 100,00 %
09.02.2021 03:52 -8,3 C -8,9 C -10,5 C 89 % 1005,1 hPa 0,0 l/m 0 min 0 min 0 W/m 0,0 km/h (0 Bft) 97,87 %
09.02.2021 03:54 -8,3 C -8,9 C -10,5 C 89 % 1005,1 hPa 0,0 l/m 0 min 0 min 0 W/m 0,0 km/h (0 Bft) 97,87 %
09.02.2021 03:56 -8,3 C -8,9 C -10,5 C 89 % 1005,2 hPa 0,0 l/m 0 min 0 min 0 W/m 0,0 km/h (0 Bft) 100,00 %
09.02.2021 03:58 -8,3 C -8,9 C -10,5 C 89 % 1005,2 hPa 0,0 l/m 0 min 0 min 0 W/m 0,0 km/h (0 Bft) 100,00 %
09.02.2021 04:00 -8,3 C -8,9 C -10,5 C 89 % 1005,2 hPa 0,0 l/m 0 min 0 min 0 W/m 0,0 km/h (0 Bft) 100,00 %
09.02.2021 04:02 -8,3 C -8,9 C -10,5 C 89 % 1005,2 hPa 0,0 l/m 0 min 0 min 0 W/m 0,0 km/h (0 Bft) 100,00 %
09.02.2021 04:04 -8,4 C -8,9 C -10,5 C 89 % 1005,2 hPa 0,0 l/m 0 min 0 min 0 W/m 0,0 km/h (0 Bft) 97,87 %
09.02.2021 04:06 -8,4 C -8,9 C -10,5 C 89 % 1005,2 hPa 0,0 l/m 0 min 0 min 0 W/m 0,0 km/h (0 Bft) 97,87 %
09.02.2021 04:09 -8,4 C -8,9 C -10,5 C 89 % 1005,3 hPa 0,0 l/m 0 min 0 min 0 W/m 0,0 km/h (0 Bft) 92,86 %
09.02.2021 04:10 -8,4 C -8,9 C -10,5 C 89 % 1005,3 hPa 0,0 l/m 0 min 0 min 0 W/m 0,0 km/h (0 Bft) 100,00 %
09.02.2021 04:12 -8,4 C -8,9 C -10,5 C 89 % 1005,3 hPa 0,0 l/m 0 min 0 min 0 W/m 0,0 km/h (0 Bft) 100,00 %
09.02.2021 04:14 -8,4 C -8,9 C -10,5 C 89 % 1005,4 hPa 0,0 l/m 0 min 0 min 0 W/m 0,0 km/h (0 Bft) 95,74 %
09.02.2021 04:16 -8,4 C -8,9 C -10,5 C 89 % 1005,4 hPa 0,0 l/m 0 min 0 min 0 W/m 0,0 km/h (0 Bft) 80,85 %
09.02.2021 04:18 -8,4 C -8,9 C -10,5 C 89 % 1005,4 hPa 0,0 l/m 0 min 0 min 0 W/m 0,0 km/h (0 Bft) 68,09 %
09.02.2021 04:20 -8,4 C -8,9 C -10,5 C 89 % 1005,4 hPa 0,0 l/m 0 min 0 min 0 W/m 0,0 km/h (0 Bft) 93,48 %
09.02.2021 04:22 -8,4 C -8,9 C -10,5 C 89 % 1005,5 hPa 0,0 l/m 0 min 0 min 0 W/m 0,0 km/h (0 Bft) 93,62 %
09.02.2021 04:24 -8,4 C -8,9 C -10,5 C 89 % 1005,5 hPa 0,0 l/m 0 min 0 min 0 W/m 0,0 km/h (0 Bft) 95,74 %
09.02.2021 04:26 -8,5 C -8,9 C -10,5 C 89 % 1005,6 hPa 0,0 l/m 0 min 0 min 0 W/m 3,2 km/h (1 Bft) 93,62 %
09.02.2021 04:28 -8,5 C -8,9 C -10,5 C 89 % 1005,6 hPa 0,0 l/m 0 min 0 min 0 W/m 6,4 km/h (2 Bft) 93,62 %
09.02.2021 04:30 -8,5 C -8,9 C -10,5 C 89 % 1005,6 hPa 0,0 l/m 0 min 0 min 0 W/m 0,0 km/h (0 Bft) 95,74 %
09.02.2021 04:32 -8,5 C -8,9 C -10,5 C 89 % 1005,6 hPa 0,0 l/m 0 min 0 min 0 W/m 0,0 km/h (0 Bft) 94,44 %
09.02.2021 04:34 -8,5 C -8,9 C -11,1 C 89 % 1005,6 hPa 0,0 l/m 0 min 0 min 0 W/m 0,0 km/h (0 Bft) 95,74 %
09.02.2021 04:36 -8,5 C -8,9 C -11,1 C 89 % 1005,6 hPa 0,0 l/m 0 min 0 min 0 W/m 0,0 km/h (0 Bft) 93,48 %
09.02.2021 04:38 -8,5 C -8,9 C -11,1 C 89 % 1005,7 hPa 0,0 l/m 0 min 0 min 0 W/m 0,0 km/h (0 Bft) 91,49 %
09.02.2021 04:40 -8,5 C -8,9 C -11,1 C 89 % 1005,7 hPa 0,0 l/m 0 min 0 min 0 W/m 0,0 km/h (0 Bft) 93,62 %
09.02.2021 04:42 -8,6 C -8,9 C -11,1 C 89 % 1005,7 hPa 0,0 l/m 0 min 0 min 0 W/m 0,0 km/h (0 Bft) 93,62 %
09.02.2021 04:44 -8,6 C -8,9 C -11,1 C 89 % 1005,7 hPa 0,0 l/m 0 min 0 min 0 W/m 0,0 km/h (0 Bft) 95,74 %
09.02.2021 04:46 -8,6 C -8,9 C -11,1 C 89 % 1005,6 hPa 0,0 l/m 0 min 0 min 0 W/m 0,0 km/h (0 Bft) 95,74 %
09.02.2021 04:48 -8,6 C -8,9 C -11,1 C 89 % 1005,6 hPa 0,0 l/m 0 min 0 min 0 W/m 0,0 km/h (0 Bft) 95,65 %
09.02.2021 04:50 -8,6 C -8,9 C -11,1 C 89 % 1005,7 hPa 0,0 l/m 0 min 0 min 0 W/m 0,0 km/h (0 Bft) 95,74 %
09.02.2021 04:52 -8,6 C -9,4 C -11,1 C 89 % 1005,8 hPa 0,0 l/m 0 min 0 min 0 W/m 3,2 km/h (1 Bft) 95,74 %
09.02.2021 04:54 -8,6 C -9,4 C -11,1 C 89 % 1005,7 hPa 0,0 l/m 0 min 0 min 0 W/m 0,0 km/h (0 Bft) 95,74 %
09.02.2021 04:56 -8,6 C -9,4 C -11,1 C 89 % 1005,8 hPa 0,0 l/m 0 min 0 min 0 W/m 0,0 km/h (0 Bft) 93,62 %
09.02.2021 04:58 -8,6 C -8,9 C -11,1 C 89 % 1005,8 hPa 0,0 l/m 0 min 0 min 0 W/m 0,0 km/h (0 Bft) 93,62 %
09.02.2021 05:00 -8,6 C -8,9 C -11,1 C 89 % 1005,8 hPa 0,0 l/m 0 min 0 min 0 W/m 0,0 km/h (0 Bft) 95,65 %
09.02.2021 05:02 -8,6 C -8,9 C -11,1 C 89 % 1005,8 hPa 0,0 l/m 0 min 0 min 0 W/m 0,0 km/h (0 Bft) 97,87 %
09.02.2021 05:04 -8,6 C -8,9 C -11,1 C 89 % 1005,8 hPa 0,0 l/m 0 min 0 min 0 W/m 0,0 km/h (0 Bft) 95,74 %
09.02.2021 05:06 -8,6 C -8,9 C -11,1 C 89 % 1005,7 hPa 0,0 l/m 0 min 0 min 0 W/m 0,0 km/h (0 Bft) 98,28 %
09.02.2021 05:08 -8,6 C -8,9 C -11,1 C 89 % 1005,8 hPa 0,0 l/m 0 min 0 min 0 W/m 0,0 km/h (0 Bft) 97,22 %
09.02.2021 05:10 -8,7 C -8,9 C -11,1 C 89 % 1005,7 hPa 0,0 l/m 0 min 0 min 0 W/m 0,0 km/h (0 Bft) 54,35 %
09.02.2021 05:12 -8,7 C -8,9 C -11,1 C 89 % 1005,7 hPa 0,0 l/m 0 min 0 min 0 W/m 0,0 km/h (0 Bft) 95,65 %
09.02.2021 05:14 -8,6 C -8,9 C -11,1 C 90 % 1005,7 hPa 0,0 l/m 0 min 0 min 0 W/m 0,0 km/h (0 Bft) 93,62 %
09.02.2021 05:16 -8,6 C -8,9 C -11,1 C 90 % 1005,7 hPa 0,0 l/m 0 min 0 min 0 W/m 0,0 km/h (0 Bft) 97,87 %
09.02.2021 05:18 -8,7 C -8,9 C -11,1 C 90 % 1005,7 hPa 0,0 l/m 0 min 0 min 0 W/m 0,0 km/h (0 Bft) 97,87 %
09.02.2021 05:20 -8,7 C -8,9 C -11,1 C 90 % 1005,7 hPa 0,0 l/m 0 min 0 min 0 W/m 0,0 km/h (0 Bft) 95,74 %
09.02.2021 05:22 -8,7 C -8,9 C -11,1 C 90 % 1005,7 hPa 0,0 l/m 0 min 0 min 0 W/m 0,0 km/h (0 Bft) 97,83 %
09.02.2021 05:24 -8,7 C -8,9 C -11,1 C 90 % 1005,8 hPa 0,0 l/m 0 min 0 min 0 W/m 0,0 km/h (0 Bft) 97,87 %
09.02.2021 05:26 -8,7 C -8,9 C -11,1 C 90 % 1005,8 hPa 0,0 l/m 0 min 0 min 0 W/m 0,0 km/h (0 Bft) 97,87 %
09.02.2021 05:28 -8,7 C -8,9 C -11,1 C 90 % 1005,8 hPa 0,0 l/m 0 min 0 min 0 W/m 0,0 km/h (0 Bft) 95,74 %
09.02.2021 05:30 -8,7 C -8,9 C -11,1 C 90 % 1005,9 hPa 0,0 l/m 0 min 0 min 0 W/m 0,0 km/h (0 Bft) 95,74 %
09.02.2021 05:32 -8,7 C -8,9 C -11,1 C 90 % 1005,9 hPa 0,0 l/m 0 min 0 min 0 W/m 0,0 km/h (0 Bft) 97,87 %
09.02.2021 05:34 -8,7 C -9,4 C -11,1 C 90 % 1006,0 hPa 0,0 l/m 0 min 0 min 0 W/m 0,0 km/h (0 Bft) 95,65 %
09.02.2021 05:36 -8,7 C -8,9 C -11,1 C 90 % 1005,9 hPa 0,0 l/m 0 min 0 min 0 W/m 0,0 km/h (0 Bft) 97,87 %
09.02.2021 05:38 -8,7 C -9,4 C -11,1 C 90 % 1006,0 hPa 0,0 l/m 0 min 0 min 0 W/m 0,0 km/h (0 Bft) 97,87 %
09.02.2021 05:40 -8,7 C -9,4 C -11,1 C 90 % 1006,0 hPa 0,0 l/m 0 min 0 min 0 W/m 0,0 km/h (0 Bft) 97,87 %
09.02.2021 05:42 -8,7 C -9,4 C -11,1 C 90 % 1006,0 hPa 0,0 l/m 0 min 0 min 0 W/m 0,0 km/h (0 Bft) 97,87 %
09.02.2021 05:44 -8,7 C -9,4 C -11,1 C 90 % 1006,0 hPa 0,0 l/m 0 min 0 min 0 W/m 0,0 km/h (0 Bft) 97,87 %
09.02.2021 05:46 -8,7 C -9,4 C -11,1 C 90 % 1006,0 hPa 0,0 l/m 0 min 0 min 0 W/m 0,0 km/h (0 Bft) 95,65 %
09.02.2021 05:48 -8,7 C -9,4 C -11,1 C 90 % 1006,0 hPa 0,0 l/m 0 min 0 min 0 W/m 0,0 km/h (0 Bft) 97,87 %
09.02.2021 05:50 -8,7 C -9,4 C -11,1 C 90 % 1006,1 hPa 0,0 l/m 0 min 0 min 0 W/m 0,0 km/h (0 Bft) 97,87 %
09.02.2021 05:52 -8,7 C -9,4 C -11,1 C 90 % 1006,1 hPa 0,0 l/m 0 min 0 min 0 W/m 0,0 km/h (0 Bft) 97,87 %
09.02.2021 05:54 -8,7 C -9,4 C -11,1 C 90 % 1006,2 hPa 0,0 l/m 0 min 0 min 0 W/m 0,0 km/h (0 Bft) 97,87 %
09.02.2021 05:56 -8,7 C -9,4 C -11,1 C 90 % 1006,1 hPa 0,0 l/m 0 min 0 min 0 W/m 0,0 km/h (0 Bft) 97,87 %
09.02.2021 05:58 -8,8 C -9,4 C -11,6 C 90 % 1006,1 hPa 0,0 l/m 0 min 0 min 0 W/m 0,0 km/h (0 Bft) 97,83 %
09.02.2021 06:00 -8,8 C -9,4 C -11,6 C 90 % 1006,2 hPa 0,0 l/m 0 min 0 min 0 W/m 0,0 km/h (0 Bft) 97,87 %
09.02.2021 06:02 -8,8 C -9,4 C -11,1 C 90 % 1006,2 hPa 0,0 l/m 0 min 0 min 0 W/m 0,0 km/h (0 Bft) 97,92 %
09.02.2021 06:04 -8,8 C -9,4 C -11,6 C 90 % 1006,1 hPa 0,0 l/m 0 min 0 min 0 W/m 0,0 km/h (0 Bft) 97,87 %
09.02.2021 06:06 -8,8 C -9,4 C -11,6 C 90 % 1006,2 hPa 0,0 l/m 0 min 0 min 0 W/m 0,0 km/h (0 Bft) 97,87 %
09.02.2021 06:08 -8,8 C -9,4 C -11,6 C 90 % 1006,2 hPa 0,0 l/m 0 min 0 min 0 W/m 0,0 km/h (0 Bft) 97,87 %
09.02.2021 06:10 -8,9 C -9,4 C -11,6 C 90 % 1006,2 hPa 0,0 l/m 0 min 0 min 0 W/m 0,0 km/h (0 Bft) 95,65 %
09.02.2021 06:12 -8,9 C -9,4 C -11,6 C 90 % 1006,2 hPa 0,0 l/m 0 min 0 min 0 W/m 0,0 km/h (0 Bft) 95,74 %
09.02.2021 06:14 -8,9 C -9,4 C -11,6 C 90 % 1006,2 hPa 0,0 l/m 0 min 0 min 0 W/m 0,0 km/h (0 Bft) 97,87 %
09.02.2021 06:16 -8,9 C -9,4 C -11,6 C 90 % 1006,2 hPa 0,0 l/m 0 min 0 min 0 W/m 0,0 km/h (0 Bft) 93,62 %
09.02.2021 06:18 -8,9 C -9,4 C -11,6 C 90 % 1006,3 hPa 0,0 l/m 0 min 0 min 0 W/m 0,0 km/h (0 Bft) 97,87 %
09.02.2021 06:20 -8,9 C -9,4 C -11,6 C 90 % 1006,3 hPa 0,0 l/m 0 min 0 min 0 W/m 0,0 km/h (0 Bft) 95,65 %
09.02.2021 06:22 -8,9 C -9,4 C -11,6 C 90 % 1006,3 hPa 0,0 l/m 0 min 0 min 0 W/m 0,0 km/h (0 Bft) 95,74 %
09.02.2021 06:24 -8,9 C -9,4 C -11,6 C 90 % 1006,2 hPa 0,0 l/m 0 min 0 min 0 W/m 0,0 km/h (0 Bft) 95,74 %
09.02.2021 06:26 -9,0 C -9,4 C -11,6 C 90 % 1006,3 hPa 0,0 l/m 0 min 0 min 0 W/m 0,0 km/h (0 Bft) 93,62 %
09.02.2021 06:28 -9,0 C -9,4 C -11,6 C 90 % 1006,3 hPa 0,0 l/m 0 min 0 min 0 W/m 0,0 km/h (0 Bft) 95,74 %
09.02.2021 06:30 -9,0 C -9,4 C -11,6 C 90 % 1006,3 hPa 0,0 l/m 0 min 0 min 0 W/m 0,0 km/h (0 Bft) 95,74 %
09.02.2021 06:32 -9,0 C -9,4 C -11,6 C 90 % 1006,3 hPa 0,0 l/m 0 min 0 min 0 W/m 0,0 km/h (0 Bft) 95,74 %
09.02.2021 06:34 -9,0 C -9,4 C -11,6 C 89 % 1006,3 hPa 0,0 l/m 0 min 0 min 0 W/m 0,0 km/h (0 Bft) 95,74 %
09.02.2021 06:36 -9,0 C -10,0 C -11,6 C 89 % 1006,4 hPa 0,0 l/m 0 min 0 min 0 W/m 0,0 km/h (0 Bft) 95,74 %
09.02.2021 06:38 -9,0 C -10,0 C -11,6 C 89 % 1006,3 hPa 0,0 l/m 0 min 0 min 0 W/m 0,0 km/h (0 Bft) 93,62 %
09.02.2021 06:40 -9,0 C -10,0 C -11,6 C 89 % 1006,3 hPa 0,0 l/m 0 min 0 min 0 W/m 0,0 km/h (0 Bft) 95,74 %
09.02.2021 06:42 -9,0 C -10,0 C -11,6 C 89 % 1006,3 hPa 0,0 l/m 0 min 0 min 0 W/m 0,0 km/h (0 Bft) 91,49 %
09.02.2021 06:44 -9,1 C -10,0 C -11,6 C 89 % 1006,3 hPa 0,0 l/m 0 min 0 min 0 W/m 0,0 km/h (0 Bft) 95,65 %
09.02.2021 06:46 -9,1 C -10,0 C -11,6 C 89 % 1006,3 hPa 0,0 l/m 0 min 0 min 0 W/m 0,0 km/h (0 Bft) 95,74 %
09.02.2021 06:48 -9,1 C -10,0 C -11,6 C 89 % 1006,3 hPa 0,0 l/m 0 min 0 min 0 W/m 0,0 km/h (0 Bft) 93,62 %
09.02.2021 06:50 -9,1 C -10,0 C -11,6 C 89 % 1006,3 hPa 0,0 l/m 0 min 0 min 0 W/m 0,0 km/h (0 Bft) 93,62 %
09.02.2021 06:52 -9,1 C -10,0 C -11,6 C 89 % 1006,3 hPa 0,0 l/m 0 min 0 min 0 W/m 0,0 km/h (0 Bft) 95,74 %
09.02.2021 06:54 -9,1 C -10,0 C -12,2 C 89 % 1006,4 hPa 0,0 l/m 0 min 0 min 0 W/m 0,0 km/h (0 Bft) 93,62 %
09.02.2021 06:56 -9,1 C -10,0 C -12,2 C 89 % 1006,4 hPa 0,0 l/m 0 min 0 min 0 W/m 0,0 km/h (0 Bft) 93,48 %
09.02.2021 06:58 -9,2 C -10,0 C -12,2 C 90 % 1006,4 hPa 0,0 l/m 0 min 0 min 0 W/m 0,0 km/h (0 Bft) 97,87 %
09.02.2021 07:00 -9,2 C -10,0 C -12,2 C 90 % 1006,5 hPa 0,0 l/m 0 min 0 min 0 W/m 0,0 km/h (0 Bft) 95,74 %
09.02.2021 07:02 -9,2 C -10,0 C -12,2 C 90 % 1006,5 hPa 0,0 l/m 0 min 0 min 0 W/m 0,0 km/h (0 Bft) 95,83 %
09.02.2021 07:04 -9,2 C -10,0 C -12,2 C 90 % 1006,5 hPa 0,0 l/m 0 min 0 min 0 W/m 0,0 km/h (0 Bft) 95,74 %
09.02.2021 07:06 -9,2 C -10,6 C -12,2 C 90 % 1006,5 hPa 0,0 l/m 0 min 0 min 0 W/m 0,0 km/h (0 Bft) 97,83 %
09.02.2021 07:08 -9,3 C -10,6 C -12,2 C 90 % 1006,6 hPa 0,0 l/m 0 min 0 min 0 W/m 0,0 km/h (0 Bft) 97,87 %
09.02.2021 07:10 -9,3 C -10,6 C -12,2 C 90 % 1006,6 hPa 0,0 l/m 0 min 0 min 0 W/m 0,0 km/h (0 Bft) 97,87 %
09.02.2021 07:12 -9,3 C -10,6 C -12,2 C 90 % 1006,6 hPa 0,0 l/m 0 min 0 min 0 W/m 0,0 km/h (0 Bft) 100,00 %
09.02.2021 07:14 -9,4 C -10,6 C -12,2 C 90 % 1006,6 hPa 0,0 l/m 0 min 0 min 0 W/m 0,0 km/h (0 Bft) 100,00 %
09.02.2021 07:16 -9,4 C -10,6 C -12,2 C 89 % 1006,7 hPa 0,0 l/m 0 min 0 min 0 W/m 0,0 km/h (0 Bft) 97,87 %
09.02.2021 07:18 -9,4 C -10,6 C -12,2 C 89 % 1006,7 hPa 0,0 l/m 0 min 0 min 0 W/m 0,0 km/h (0 Bft) 100,00 %
09.02.2021 07:20 -9,4 C -10,6 C -12,2 C 89 % 1006,9 hPa 0,0 l/m 0 min 0 min 0 W/m 0,0 km/h (0 Bft) 100,00 %
09.02.2021 07:22 -9,5 C -10,6 C -12,2 C 89 % 1006,9 hPa 0,0 l/m 0 min 0 min 0 W/m 0,0 km/h (0 Bft) 100,00 %
09.02.2021 07:24 -9,5 C -10,6 C -12,2 C 89 % 1007,0 hPa 0,0 l/m 0 min 0 min 0 W/m 0,0 km/h (0 Bft) 97,87 %
09.02.2021 07:26 -9,5 C -10,6 C -12,2 C 89 % 1007,1 hPa 0,0 l/m 0 min 0 min 0 W/m 0,0 km/h (0 Bft) 95,74 %
09.02.2021 07:28 -9,5 C -10,6 C -12,2 C 89 % 1007,1 hPa 0,0 l/m 0 min 0 min 0 W/m 0,0 km/h (0 Bft) 95,74 %
09.02.2021 07:30 -9,5 C -10,6 C -12,2 C 89 % 1007,1 hPa 0,0 l/m 0 min 0 min 0 W/m 0,0 km/h (0 Bft) 97,83 %
09.02.2021 07:32 -9,6 C -10,6 C -12,2 C 89 % 1007,1 hPa 0,0 l/m 0 min 0 min 0 W/m 0,0 km/h (0 Bft) 95,74 %
09.02.2021 07:34 -9,6 C -10,6 C -12,2 C 89 % 1007,2 hPa 0,0 l/m 0 min 0 min 0 W/m 0,0 km/h (0 Bft) 95,74 %
09.02.2021 07:36 -9,6 C -10,6 C -12,2 C 89 % 1007,2 hPa 0,0 l/m 0 min 0 min 0 W/m 0,0 km/h (0 Bft) 97,87 %
09.02.2021 07:38 -9,6 C -10,6 C -12,2 C 89 % 1007,2 hPa 0,0 l/m 0 min 0 min 0 W/m 0,0 km/h (0 Bft) 95,74 %
09.02.2021 07:40 -9,7 C -10,6 C -12,2 C 89 % 1007,3 hPa 0,0 l/m 0 min 0 min 0 W/m 0,0 km/h (0 Bft) 97,87 %
09.02.2021 07:42 -9,7 C -10,6 C -12,2 C 89 % 1007,3 hPa 0,0 l/m 0 min 0 min 0 W/m 0,0 km/h (0 Bft) 93,48 %
09.02.2021 07:44 -9,7 C -10,0 C -11,6 C 89 % 1007,3 hPa 0,0 l/m 0 min 0 min 0 W/m 0,0 km/h (0 Bft) 97,87 %
09.02.2021 07:46 -9,7 C -10,0 C -11,6 C 89 % 1007,3 hPa 0,0 l/m 0 min 0 min 0 W/m 0,0 km/h (0 Bft) 97,87 %
09.02.2021 07:48 -9,7 C -10,0 C -11,6 C 89 % 1007,2 hPa 0,0 l/m 0 min 0 min 0 W/m 0,0 km/h (0 Bft) 95,74 %
09.02.2021 07:50 -9,7 C -10,0 C -11,6 C 89 % 1007,2 hPa 0,0 l/m 0 min 0 min 0 W/m 0,0 km/h (0 Bft) 97,87 %
09.02.2021 07:52 -9,8 C -10,0 C -11,6 C 89 % 1007,2 hPa 0,0 l/m 0 min 0 min 0 W/m 0,0 km/h (0 Bft) 95,74 %
09.02.2021 07:54 -9,8 C -10,0 C -11,1 C 89 % 1007,2 hPa 0,0 l/m 0 min 0 min 0 W/m 0,0 km/h (0 Bft) 97,83 %
09.02.2021 07:56 -9,8 C -10,0 C -11,1 C 89 % 1007,2 hPa 0,0 l/m 0 min 0 min 0 W/m 0,0 km/h (0 Bft) 95,74 %
09.02.2021 07:58 -9,8 C -10,0 C -11,1 C 89 % 1007,2 hPa 0,0 l/m 0 min 0 min 0 W/m 0,0 km/h (0 Bft) 97,87 %
09.02.2021 08:00 -9,8 C -9,4 C -11,1 C 89 % 1007,2 hPa 0,0 l/m 0 min 0 min 0 W/m 0,0 km/h (0 Bft) 46,15 %
09.02.2021 08:02 -9,8 C -9,4 C -11,1 C 89 % 1007,2 hPa 0,0 l/m 0 min 0 min 0 W/m 0,0 km/h (0 Bft) 91,67 %
09.02.2021 08:04 -9,8 C -9,4 C -11,1 C 89 % 1007,1 hPa 0,0 l/m 0 min 0 min 0 W/m 0,0 km/h (0 Bft) 97,87 %
09.02.2021 08:06 -9,8 C -9,4 C -11,1 C 89 % 1007,2 hPa 0,0 l/m 0 min 0 min 0 W/m 0,0 km/h (0 Bft) 93,48 %
09.02.2021 08:08 -9,8 C -9,4 C -11,1 C 90 % 1007,2 hPa 0,0 l/m 0 min 0 min 0 W/m 0,0 km/h (0 Bft) 97,87 %
09.02.2021 08:10 -9,7 C -9,4 C -11,1 C 90 % 1007,2 hPa 0,0 l/m 0 min 0 min 0 W/m 0,0 km/h (0 Bft) 97,87 %
09.02.2021 08:14 -9,7 C -9,4 C -11,1 C 90 % 1007,3 hPa 0,0 l/m 0 min 0 min 0 W/m 0,0 km/h (0 Bft) 94,44 %
09.02.2021 08:16 -9,7 C -9,4 C -10,5 C 90 % 1007,3 hPa 0,0 l/m 0 min 0 min 0 W/m 0,0 km/h (0 Bft) 92,68 %
09.02.2021 08:18 -9,7 C -9,4 C -10,5 C 90 % 1007,4 hPa 0,0 l/m 0 min 0 min 0 W/m 0,0 km/h (0 Bft) 93,62 %
09.02.2021 08:20 -9,6 C -9,4 C -10,5 C 90 % 1007,4 hPa 0,0 l/m 0 min 0 min 0 W/m 0,0 km/h (0 Bft) 96,00 %
09.02.2021 08:22 -9,6 C -9,4 C -10,5 C 90 % 1007,5 hPa 0,0 l/m 0 min 0 min 0 W/m 0,0 km/h (0 Bft) 95,92 %
09.02.2021 08:24 -9,6 C -9,4 C -10,5 C 90 % 1007,5 hPa 0,0 l/m 0 min 0 min 0 W/m 0,0 km/h (0 Bft) 95,74 %
09.02.2021 08:26 -9,6 C -9,4 C -10,5 C 90 % 1007,4 hPa 0,0 l/m 0 min 0 min 0 W/m 0,0 km/h (0 Bft) 97,87 %
09.02.2021 08:28 -9,6 C -9,4 C -11,1 C 90 % 1007,4 hPa 0,0 l/m 0 min 0 min 0 W/m 0,0 km/h (0 Bft) 97,83 %
09.02.2021 08:30 -9,5 C -9,4 C -11,1 C 90 % 1007,5 hPa 0,0 l/m 0 min 0 min 0 W/m 0,0 km/h (0 Bft) 97,87 %
09.02.2021 08:32 -9,5 C -9,4 C -11,1 C 90 % 1007,5 hPa 0,0 l/m 0 min 0 min 0 W/m 0,0 km/h (0 Bft) 97,87 %
09.02.2021 08:34 -9,5 C -9,4 C -11,1 C 91 % 1007,5 hPa 0,0 l/m 0 min 0 min 0 W/m 0,0 km/h (0 Bft) 93,62 %
09.02.2021 08:36 -9,5 C -9,4 C -11,1 C 91 % 1007,5 hPa 0,0 l/m 0 min 0 min 2 W/m 0,0 km/h (0 Bft) 97,87 %
09.02.2021 08:38 -9,5 C -9,4 C -11,1 C 91 % 1007,5 hPa 0,0 l/m 0 min 0 min 1 W/m 0,0 km/h (0 Bft) 95,74 %
09.02.2021 08:40 -9,4 C -9,4 C -11,1 C 91 % 1007,5 hPa 0,0 l/m 0 min 0 min 5 W/m 0,0 km/h (0 Bft) 97,83 %
09.02.2021 08:42 -9,4 C -9,4 C -11,1 C 91 % 1007,6 hPa 0,0 l/m 0 min 0 min 5 W/m 0,0 km/h (0 Bft) 97,87 %
09.02.2021 08:44 -9,4 C -9,4 C -11,1 C 91 % 1007,6 hPa 0,0 l/m 0 min 0 min 5 W/m 0,0 km/h (0 Bft) 97,87 %
09.02.2021 08:46 -9,4 C -9,4 C -11,1 C 91 % 1007,6 hPa 0,0 l/m 0 min 0 min 5 W/m 0,0 km/h (0 Bft) 97,87 %
09.02.2021 08:48 -9,4 C -9,4 C -11,1 C 91 % 1007,7 hPa 0,0 l/m 0 min 0 min 5 W/m 0,0 km/h (0 Bft) 97,87 %
09.02.2021 08:50 -9,4 C -9,4 C -11,1 C 91 % 1007,6 hPa 0,0 l/m 0 min 0 min 7 W/m 0,0 km/h (0 Bft) 97,87 %
09.02.2021 08:52 -9,4 C -9,4 C -11,1 C 91 % 1007,6 hPa 0,0 l/m 0 min 0 min 7 W/m 0,0 km/h (0 Bft) 97,83 %
09.02.2021 08:54 -9,3 C -9,4 C -11,1 C 91 % 1007,7 hPa 0,0 l/m 0 min 0 min 7 W/m 0,0 km/h (0 Bft) 95,74 %
09.02.2021 08:56 -9,3 C -9,4 C -11,1 C 91 % 1007,8 hPa 0,0 l/m 0 min 0 min 7 W/m 0,0 km/h (0 Bft) 100,00 %
09.02.2021 08:58 -9,3 C -9,4 C -11,1 C 91 % 1007,8 hPa 0,0 l/m 0 min 0 min 7 W/m 0,0 km/h (0 Bft) 100,00 %
09.02.2021 09:00 -9,3 C -9,4 C -11,1 C 91 % 1007,8 hPa 0,0 l/m 0 min 0 min 7 W/m 0,0 km/h (0 Bft) 100,00 %
09.02.2021 09:02 -9,3 C -9,4 C -11,1 C 91 % 1007,8 hPa 0,0 l/m 0 min 0 min 7 W/m 0,0 km/h (0 Bft) 97,87 %
09.02.2021 09:04 -9,3 C -9,4 C -11,1 C 91 % 1007,8 hPa 0,0 l/m 0 min 0 min 7 W/m 0,0 km/h (0 Bft) 100,00 %
09.02.2021 09:06 -9,3 C -9,4 C -11,1 C 91 % 1007,9 hPa 0,0 l/m 0 min 0 min 8 W/m 0,0 km/h (0 Bft) 100,00 %
09.02.2021 09:08 -9,3 C -9,4 C -11,1 C 91 % 1007,9 hPa 0,0 l/m 0 min 0 min 8 W/m 0,0 km/h (0 Bft) 97,87 %
09.02.2021 09:10 -9,2 C -8,9 C -11,1 C 91 % 1007,9 hPa 0,0 l/m 0 min 0 min 9 W/m 0,0 km/h (0 Bft) 97,87 %
09.02.2021 09:12 -9,3 C -8,9 C -11,1 C 91 % 1007,9 hPa 0,0 l/m 0 min 0 min 10 W/m 0,0 km/h (0 Bft) 95,74 %
09.02.2021 09:14 -9,3 C -8,9 C -11,1 C 91 % 1007,9 hPa 0,0 l/m 0 min 0 min 11 W/m 0,0 km/h (0 Bft) 100,00 %
09.02.2021 09:16 -9,2 C -8,9 C -10,5 C 91 % 1007,9 hPa 0,0 l/m 0 min 0 min 13 W/m 0,0 km/h (0 Bft) 100,00 %
09.02.2021 09:18 -9,2 C -8,9 C -10,5 C 91 % 1007,8 hPa 0,0 l/m 0 min 0 min 14 W/m 0,0 km/h (0 Bft) 97,87 %
09.02.2021 09:20 -9,2 C -8,3 C -10,5 C 91 % 1007,9 hPa 0,0 l/m 0 min 0 min 14 W/m 0,0 km/h (0 Bft) 100,00 %
09.02.2021 09:22 -9,2 C -8,3 C -10,5 C 91 % 1007,8 hPa 0,0 l/m 0 min 0 min 14 W/m 0,0 km/h (0 Bft) 100,00 %
09.02.2021 09:24 -9,2 C -8,3 C -10,5 C 91 % 1007,8 hPa 0,0 l/m 0 min 0 min 13 W/m 0,0 km/h (0 Bft) 100,00 %
09.02.2021 09:26 -9,2 C -8,3 C -10,5 C 91 % 1007,8 hPa 0,0 l/m 0 min 0 min 12 W/m 0,0 km/h (0 Bft) 100,00 %
09.02.2021 09:28 -9,1 C -8,3 C -10,0 C 91 % 1007,8 hPa 0,0 l/m 0 min 0 min 11 W/m 0,0 km/h (0 Bft) 97,83 %
09.02.2021 09:30 -9,1 C -8,3 C -10,0 C 91 % 1007,9 hPa 0,0 l/m 0 min 0 min 12 W/m 0,0 km/h (0 Bft) 100,00 %
09.02.2021 09:32 -9,1 C -8,3 C -10,0 C 91 % 1007,9 hPa 0,0 l/m 0 min 0 min 12 W/m 0,0 km/h (0 Bft) 100,00 %
09.02.2021 09:34 -9,1 C -8,3 C -10,0 C 91 % 1007,9 hPa 0,0 l/m 0 min 0 min 13 W/m 0,0 km/h (0 Bft) 97,87 %
09.02.2021 09:36 -9,0 C -8,3 C -10,0 C 91 % 1007,9 hPa 0,0 l/m 0 min 0 min 15 W/m 0,0 km/h (0 Bft) 100,00 %
09.02.2021 09:38 -9,0 C -8,3 C -10,0 C 91 % 1008,0 hPa 0,0 l/m 0 min 0 min 18 W/m 0,0 km/h (0 Bft) 53,49 %
09.02.2021 09:40 -9,0 C -7,8 C -9,4 C 91 % 1007,9 hPa 0,0 l/m 0 min 0 min 20 W/m 0,0 km/h (0 Bft) 100,00 %
09.02.2021 09:42 -8,9 C -7,8 C -9,4 C 91 % 1007,9 hPa 0,0 l/m 0 min 0 min 19 W/m 0,0 km/h (0 Bft) 100,00 %
09.02.2021 09:44 -8,9 C -7,8 C -9,4 C 91 % 1007,9 hPa 0,0 l/m 0 min 0 min 18 W/m 0,0 km/h (0 Bft) 100,00 %
09.02.2021 09:46 -8,8 C -7,8 C -9,4 C 92 % 1007,9 hPa 0,0 l/m 0 min 0 min 19 W/m 0,0 km/h (0 Bft) 100,00 %
09.02.2021 09:48 -8,7 C -7,8 C -9,4 C 92 % 1007,9 hPa 0,0 l/m 0 min 0 min 20 W/m 0,0 km/h (0 Bft) 97,87 %
09.02.2021 09:50 -8,7 C -7,2 C -9,4 C 92 % 1008,0 hPa 0,0 l/m 0 min 0 min 22 W/m 0,0 km/h (0 Bft) 100,00 %
09.02.2021 09:52 -8,6 C -7,2 C -8,8 C 92 % 1007,9 hPa 0,0 l/m 0 min 0 min 21 W/m 0,0 km/h (0 Bft) 100,00 %
09.02.2021 09:54 -8,6 C -7,2 C -8,8 C 92 % 1007,9 hPa 0,0 l/m 0 min 0 min 19 W/m 0,0 km/h (0 Bft) 100,00 %
09.02.2021 09:56 -8,5 C -7,2 C -8,8 C 92 % 1008,0 hPa 0,0 l/m 0 min 0 min 19 W/m 0,0 km/h (0 Bft) 95,74 %
09.02.2021 09:58 -8,5 C -7,2 C -8,8 C 92 % 1008,0 hPa 0,0 l/m 0 min 0 min 21 W/m 0,0 km/h (0 Bft) 100,00 %
09.02.2021 10:00 -8,4 C -7,2 C -8,8 C 92 % 1008,0 hPa 0,0 l/m 0 min 0 min 23 W/m 0,0 km/h (0 Bft) 100,00 %
09.02.2021 10:02 -8,4 C -7,2 C -8,8 C 92 % 1008,0 hPa 0,0 l/m 0 min 0 min 23 W/m 0,0 km/h (0 Bft) 97,83 %
09.02.2021 10:04 -8,3 C -7,2 C -8,8 C 92 % 1007,9 hPa 0,0 l/m 0 min 0 min 24 W/m 0,0 km/h (0 Bft) 54,55 %
09.02.2021 10:06 -8,2 C -7,2 C -8,8 C 92 % 1007,8 hPa 0,0 l/m 0 min 0 min 25 W/m 0,0 km/h (0 Bft) 100,00 %
09.02.2021 10:08 -8,1 C -7,2 C -8,8 C 92 % 1007,8 hPa 0,0 l/m 0 min 0 min 23 W/m 0,0 km/h (0 Bft) 100,00 %
09.02.2021 10:10 -8,1 C -7,2 C -8,8 C 92 % 1007,7 hPa 0,0 l/m 0 min 0 min 20 W/m 0,0 km/h (0 Bft) 97,87 %
09.02.2021 10:12 -8,1 C -7,2 C -8,8 C 92 % 1007,8 hPa 0,0 l/m 0 min 0 min 18 W/m 0,0 km/h (0 Bft) 100,00 %
09.02.2021 10:14 -8,0 C -7,2 C -8,8 C 92 % 1007,8 hPa 0,0 l/m 0 min 0 min 18 W/m 0,0 km/h (0 Bft) 100,00 %
09.02.2021 10:16 -8,0 C -7,2 C -8,8 C 92 % 1007,8 hPa 0,0 l/m 0 min 0 min 18 W/m 0,0 km/h (0 Bft) 97,87 %
09.02.2021 10:18 -7,9 C -7,2 C -8,8 C 92 % 1007,8 hPa 0,0 l/m 0 min 0 min 19 W/m 0,0 km/h (0 Bft) 97,87 %
09.02.2021 10:20 -7,9 C -7,2 C -8,8 C 92 % 1007,8 hPa 0,0 l/m 0 min 0 min 19 W/m 0,0 km/h (0 Bft) 95,74 %
09.02.2021 10:22 -7,8 C -7,2 C -8,8 C 92 % 1007,8 hPa 0,0 l/m 0 min 0 min 19 W/m 0,0 km/h (0 Bft) 95,74 %
09.02.2021 10:24 -7,7 C -7,2 C -8,8 C 92 % 1007,8 hPa 0,0 l/m 0 min 0 min 20 W/m 0,0 km/h (0 Bft) 93,62 %
09.02.2021 10:26 -7,7 C -6,7 C -8,8 C 92 % 1007,9 hPa 0,0 l/m 0 min 0 min 21 W/m 0,0 km/h (0 Bft) 95,65 %
09.02.2021 10:28 -7,6 C -6,7 C -8,8 C 92 % 1007,8 hPa 0,0 l/m 0 min 0 min 21 W/m 0,0 km/h (0 Bft) 95,74 %
09.02.2021 10:30 -7,6 C -6,7 C -8,8 C 92 % 1007,9 hPa 0,0 l/m 0 min 0 min 21 W/m 0,0 km/h (0 Bft) 95,74 %
09.02.2021 10:32 -7,6 C -7,2 C -8,8 C 92 % 1007,8 hPa 0,0 l/m 0 min 0 min 21 W/m 0,0 km/h (0 Bft) 95,74 %
09.02.2021 10:34 -7,6 C -6,7 C -8,8 C 92 % 1007,8 hPa 0,0 l/m 0 min 0 min 21 W/m 0,0 km/h (0 Bft) 95,74 %
09.02.2021 10:36 -7,6 C -6,7 C -8,8 C 92 % 1007,8 hPa 0,0 l/m 0 min 0 min 23 W/m 0,0 km/h (0 Bft) 95,74 %
09.02.2021 10:38 -7,6 C -6,7 C -8,3 C 92 % 1007,9 hPa 0,0 l/m 0 min 0 min 25 W/m 0,0 km/h (0 Bft) 95,65 %
09.02.2021 10:40 -7,5 C -6,7 C -8,8 C 92 % 1007,9 hPa 0,0 l/m 0 min 0 min 26 W/m 0,0 km/h (0 Bft) 95,24 %
09.02.2021 10:42 -7,5 C -6,7 C -8,8 C 92 % 1007,9 hPa 0,0 l/m 0 min 0 min 25 W/m 0,0 km/h (0 Bft) 93,62 %
09.02.2021 10:44 -7,4 C -6,1 C -8,3 C 92 % 1008,0 hPa 0,0 l/m 0 min 0 min 25 W/m 0,0 km/h (0 Bft) 93,62 %
09.02.2021 10:46 -7,4 C -6,1 C -8,3 C 92 % 1008,0 hPa 0,0 l/m 0 min 0 min 25 W/m 0,0 km/h (0 Bft) 95,74 %
09.02.2021 10:48 -7,4 C -6,7 C -8,3 C 92 % 1008,0 hPa 0,0 l/m 0 min 0 min 23 W/m 0,0 km/h (0 Bft) 95,74 %
09.02.2021 10:50 -7,3 C -6,1 C -8,3 C 92 % 1008,1 hPa 0,0 l/m 0 min 0 min 23 W/m 0,0 km/h (0 Bft) 95,74 %
09.02.2021 10:52 -7,2 C -6,1 C -8,3 C 92 % 1008,0 hPa 0,0 l/m 0 min 0 min 23 W/m 0,0 km/h (0 Bft) 93,48 %
09.02.2021 10:54 -7,2 C -6,1 C -8,3 C 92 % 1008,1 hPa 0,0 l/m 0 min 0 min 24 W/m 0,0 km/h (0 Bft) 95,74 %
09.02.2021 10:56 -7,1 C -6,1 C -8,3 C 92 % 1008,1 hPa 0,0 l/m 0 min 0 min 25 W/m 0,0 km/h (0 Bft) 97,87 %
09.02.2021 10:58 -7,1 C -6,1 C -8,3 C 92 % 1008,1 hPa 0,0 l/m 0 min 0 min 24 W/m 0,0 km/h (0 Bft) 95,74 %
09.02.2021 11:00 -7,1 C -6,1 C -8,3 C 92 % 1008,0 hPa 0,0 l/m 0 min 0 min 25 W/m 0,0 km/h (0 Bft) 97,87 %
09.02.2021 11:02 -7,0 C -6,1 C -8,3 C 92 % 1008,1 hPa 0,0 l/m 0 min 0 min 24 W/m 0,0 km/h (0 Bft) 100,00 %
09.02.2021 11:04 -7,0 C -6,1 C -8,3 C 92 % 1008,1 hPa 0,0 l/m 0 min 0 min 26 W/m 0,0 km/h (0 Bft) 100,00 %
09.02.2021 11:06 -7,0 C -6,1 C -8,3 C 92 % 1008,2 hPa 0,0 l/m 0 min 0 min 27 W/m 0,0 km/h (0 Bft) 97,87 %
09.02.2021 11:08 -6,9 C -5,6 C -7,7 C 92 % 1008,2 hPa 0,0 l/m 0 min 0 min 28 W/m 0,0 km/h (0 Bft) 100,00 %
09.02.2021 11:10 -6,9 C -5,6 C -7,7 C 92 % 1008,2 hPa 0,0 l/m 0 min 0 min 27 W/m 0,0 km/h (0 Bft) 100,00 %
09.02.2021 11:12 -6,7 C -5,6 C -7,7 C 92 % 1008,2 hPa 0,0 l/m 0 min 0 min 26 W/m 0,0 km/h (0 Bft) 100,00 %
09.02.2021 11:14 -6,7 C -5,6 C -7,7 C 92 % 1008,2 hPa 0,0 l/m 0 min 0 min 26 W/m 0,0 km/h (0 Bft) 100,00 %
09.02.2021 11:16 -6,6 C -5,6 C -7,7 C 92 % 1008,2 hPa 0,0 l/m 0 min 0 min 26 W/m 0,0 km/h (0 Bft) 100,00 %
09.02.2021 11:18 -6,6 C -5,6 C -7,7 C 91 % 1008,3 hPa 0,0 l/m 0 min 0 min 26 W/m 0,0 km/h (0 Bft) 97,87 %
09.02.2021 11:20 -6,5 C -5,6 C -7,7 C 91 % 1008,3 hPa 0,0 l/m 0 min 0 min 26 W/m 0,0 km/h (0 Bft) 100,00 %
09.02.2021 11:22 -6,5 C -5,6 C -7,7 C 91 % 1008,3 hPa 0,0 l/m 0 min 0 min 25 W/m 0,0 km/h (0 Bft) 97,87 %
09.02.2021 11:24 -6,4 C -5,0 C -7,7 C 91 % 1008,3 hPa 0,0 l/m 0 min 0 min 25 W/m 0,0 km/h (0 Bft) 100,00 %
09.02.2021 11:26 -6,4 C -5,0 C -7,7 C 91 % 1008,3 hPa 0,0 l/m 0 min 0 min 25 W/m 0,0 km/h (0 Bft) 97,83 %
09.02.2021 11:28 -6,3 C -5,0 C -7,7 C 91 % 1008,3 hPa 0,0 l/m 0 min 0 min 25 W/m 0,0 km/h (0 Bft) 95,74 %
09.02.2021 11:30 -6,2 C -5,0 C -7,7 C 91 % 1008,3 hPa 0,0 l/m 0 min 0 min 25 W/m 0,0 km/h (0 Bft) 95,74 %
09.02.2021 11:32 -6,1 C -5,0 C -7,7 C 91 % 1008,3 hPa 0,0 l/m 0 min 0 min 25 W/m 0,0 km/h (0 Bft) 97,87 %
09.02.2021 11:34 -6,0 C -5,0 C -7,2 C 91 % 1008,2 hPa 0,0 l/m 0 min 0 min 25 W/m 0,0 km/h (0 Bft) 97,87 %
09.02.2021 11:36 -6,0 C -4,4 C -7,2 C 91 % 1008,3 hPa 0,0 l/m 0 min 0 min 26 W/m 0,0 km/h (0 Bft) 93,62 %
09.02.2021 11:38 -5,9 C -1,7 C -7,2 C 91 % 1008,3 hPa 0,0 l/m 0 min 0 min 47 W/m 0,0 km/h (0 Bft) 97,83 %
09.02.2021 11:40 -5,7 C 0,6 C -7,2 C 91 % 1008,3 hPa 0,0 l/m 0 min 0 min 62 W/m 0,0 km/h (0 Bft) 97,87 %
09.02.2021 11:42 -5,6 C 1,1 C -7,2 C 91 % 1008,3 hPa 0,0 l/m 0 min 0 min 62 W/m 0,0 km/h (0 Bft) 93,62 %
09.02.2021 11:44 -5,5 C 1,7 C -6,6 C 90 % 1008,3 hPa 0,0 l/m 0 min 0 min 62 W/m 0,0 km/h (0 Bft) 95,74 %
09.02.2021 11:46 -5,4 C 2,2 C -6,6 C 91 % 1008,3 hPa 0,0 l/m 0 min 0 min 64 W/m 0,0 km/h (0 Bft) 97,87 %
09.02.2021 11:48 -5,2 C 2,2 C -6,6 C 90 % 1008,3 hPa 0,0 l/m 0 min 0 min 65 W/m 0,0 km/h (0 Bft) 97,87 %
09.02.2021 11:50 -5,1 C 2,2 C -6,6 C 90 % 1008,2 hPa 0,0 l/m 0 min 0 min 67 W/m 0,0 km/h (0 Bft) 97,83 %
09.02.2021 11:52 -4,9 C 2,8 C -6,6 C 90 % 1008,3 hPa 0,0 l/m 0 min 0 min 67 W/m 0,0 km/h (0 Bft) 97,87 %
09.02.2021 11:54 -4,7 C 3,3 C -6,1 C 90 % 1008,3 hPa 0,0 l/m 0 min 0 min 68 W/m 0,0 km/h (0 Bft) 97,87 %
09.02.2021 11:56 -4,6 C 2,8 C -6,1 C 89 % 1008,3 hPa 0,0 l/m 0 min 0 min 70 W/m 0,0 km/h (0 Bft) 97,87 %
09.02.2021 11:58 -4,5 C 2,8 C -6,1 C 89 % 1008,2 hPa 0,0 l/m 0 min 0 min 71 W/m 0,0 km/h (0 Bft) 97,87 %
09.02.2021 12:00 -4,3 C 3,3 C -6,1 C 88 % 1008,2 hPa 0,0 l/m 0 min 0 min 73 W/m 0,0 km/h (0 Bft) 100,00 %
09.02.2021 12:02 -4,2 C 3,3 C -6,1 C 88 % 1008,3 hPa 0,0 l/m 0 min 0 min 74 W/m 0,0 km/h (0 Bft) 97,83 %
09.02.2021 12:04 -4,0 C 3,9 C -5,5 C 88 % 1008,3 hPa 0,0 l/m 0 min 0 min 76 W/m 0,0 km/h (0 Bft) 100,00 %
09.02.2021 12:08 -3,7 C 3,3 C -1,6 C 87 % 1008,3 hPa 0,0 l/m 0 min 4 min 78 W/m 0,0 km/h (0 Bft) 98,94 %
09.02.2021 12:10 -3,6 C 2,8 C 0,6 C 86 % 1008,3 hPa 0,0 l/m 0 min 2 min 82 W/m 0,0 km/h (0 Bft) 97,87 %
09.02.2021 12:12 -3,5 C 3,3 C 1,2 C 85 % 1008,4 hPa 0,0 l/m 0 min 0 min 83 W/m 0,0 km/h (0 Bft) 97,87 %
09.02.2021 12:14 -3,3 C 3,3 C 2,3 C 85 % 1008,4 hPa 0,0 l/m 0 min 0 min 83 W/m 0,0 km/h (0 Bft) 100,00 %
09.02.2021 12:16 -3,2 C 2,8 C 2,3 C 85 % 1008,3 hPa 0,0 l/m 0 min 0 min 83 W/m 0,0 km/h (0 Bft) 56,52 %
09.02.2021 12:18 -3,1 C 3,3 C 3,4 C 83 % 1008,4 hPa 0,0 l/m 0 min 0 min 85 W/m 0,0 km/h (0 Bft) 97,62 %
09.02.2021 12:20 -3,0 C 3,3 C 3,9 C 83 % 1008,4 hPa 0,0 l/m 0 min 0 min 88 W/m 0,0 km/h (0 Bft) 97,87 %
09.02.2021 12:22 -2,8 C 3,3 C 3,9 C 83 % 1008,4 hPa 0,0 l/m 0 min 0 min 88 W/m 0,0 km/h (0 Bft) 96,00 %
09.02.2021 12:24 -2,7 C 2,8 C 3,9 C 82 % 1008,4 hPa 0,0 l/m 0 min 0 min 90 W/m 0,0 km/h (0 Bft) 97,83 %
09.02.2021 12:26 -2,6 C 3,3 C 3,9 C 82 % 1008,3 hPa 0,0 l/m 0 min 0 min 92 W/m 0,0 km/h (0 Bft) 93,62 %
09.02.2021 12:28 -2,6 C 3,9 C 3,4 C 81 % 1008,4 hPa 0,0 l/m 0 min 0 min 94 W/m 0,0 km/h (0 Bft) 95,74 %
09.02.2021 12:30 -2,5 C 3,9 C 2,8 C 81 % 1008,3 hPa 0,0 l/m 0 min 0 min 97 W/m 0,0 km/h (0 Bft) 95,74 %
09.02.2021 12:32 -2,4 C 3,9 C 2,8 C 81 % 1008,3 hPa 0,0 l/m 0 min 0 min 99 W/m 0,0 km/h (0 Bft) 95,74 %
09.02.2021 12:34 -2,2 C 4,4 C 3,4 C 80 % 1008,3 hPa 0,0 l/m 0 min 0 min 102 W/m 0,0 km/h (0 Bft) 95,74 %
09.02.2021 12:36 -2,1 C 3,9 C 2,8 C 80 % 1008,3 hPa 0,0 l/m 0 min 0 min 104 W/m 0,0 km/h (0 Bft) 95,65 %
09.02.2021 12:38 -2,1 C 4,4 C 3,4 C 79 % 1008,3 hPa 0,0 l/m 0 min 0 min 107 W/m 0,0 km/h (0 Bft) 95,74 %
09.02.2021 12:40 -2,0 C 5,0 C 3,4 C 79 % 1008,3 hPa 0,0 l/m 0 min 0 min 112 W/m 0,0 km/h (0 Bft) 97,87 %
09.02.2021 12:42 -1,9 C 4,4 C 3,9 C 79 % 1008,4 hPa 0,2 l/m 0 min 0 min 113 W/m 0,0 km/h (0 Bft) 97,87 %
09.02.2021 12:44 -1,8 C 4,4 C 4,5 C 78 % 1008,4 hPa 0,0 l/m 0 min 0 min 115 W/m 0,0 km/h (0 Bft) 95,74 %
09.02.2021 12:46 -1,7 C 3,9 C 3,9 C 78 % 1008,4 hPa 0,0 l/m 0 min 0 min 120 W/m 0,0 km/h (0 Bft) 95,74 %
09.02.2021 12:48 -1,8 C 3,3 C 2,8 C 76 % 1008,4 hPa 0,0 l/m 0 min 0 min 121 W/m 0,0 km/h (0 Bft) 97,83 %
09.02.2021 12:50 -1,9 C 2,8 C 2,8 C 75 % 1008,3 hPa 0,0 l/m 0 min 0 min 120 W/m 0,0 km/h (0 Bft) 93,62 %
09.02.2021 12:52 -1,8 C 3,3 C 3,4 C 76 % 1008,4 hPa 0,0 l/m 0 min 0 min 121 W/m 0,0 km/h (0 Bft) 97,87 %
09.02.2021 12:54 -1,9 C 3,3 C 2,8 C 75 % 1008,3 hPa 0,0 l/m 0 min 0 min 87 W/m 0,0 km/h (0 Bft) 97,87 %
09.02.2021 12:56 -1,8 C 3,9 C 3,4 C 75 % 1008,3 hPa 0,0 l/m 0 min 0 min 127 W/m 0,0 km/h (0 Bft) 97,87 %
09.02.2021 12:58 -1,7 C 3,9 C 3,4 C 76 % 1008,2 hPa 0,0 l/m 0 min 0 min 127 W/m 0,0 km/h (0 Bft) 97,87 %
09.02.2021 13:00 -1,7 C 3,3 C 3,4 C 76 % 1008,2 hPa 0,0 l/m 0 min 0 min 131 W/m 0,0 km/h (0 Bft) 97,83 %
09.02.2021 13:02 -1,7 C 3,3 C 2,8 C 75 % 1008,2 hPa 0,0 l/m 0 min 0 min 131 W/m 0,0 km/h (0 Bft) 97,87 %
09.02.2021 13:04 -1,6 C 4,4 C 3,9 C 76 % 1008,1 hPa 0,0 l/m 0 min 0 min 136 W/m 0,0 km/h (0 Bft) 97,87 %
09.02.2021 13:06 -1,5 C 4,4 C 3,4 C 76 % 1008,2 hPa 0,0 l/m 0 min 0 min 143 W/m 0,0 km/h (0 Bft) 95,74 %
09.02.2021 13:08 -1,4 C 5,0 C 3,9 C 76 % 1008,2 hPa 0,0 l/m 0 min 0 min 138 W/m 0,0 km/h (0 Bft) 95,74 %
09.02.2021 13:10 -1,3 C 4,4 C 3,4 C 75 % 1008,2 hPa 0,0 l/m 0 min 0 min 148 W/m 0,0 km/h (0 Bft) 93,62 %
09.02.2021 13:12 -1,2 C 4,4 C 3,4 C 75 % 1008,2 hPa 0,0 l/m 0 min 0 min 150 W/m 0,0 km/h (0 Bft) 95,65 %
09.02.2021 13:14 -1,1 C 3,9 C 2,8 C 75 % 1008,2 hPa 0,0 l/m 0 min 0 min 120 W/m 0,0 km/h (0 Bft) 93,62 %
09.02.2021 13:16 -1,0 C 2,8 C 1,7 C 74 % 1008,2 hPa 0,0 l/m 0 min 0 min 120 W/m 0,0 km/h (0 Bft) 93,62 %
09.02.2021 13:18 -1,0 C 2,8 C 1,2 C 74 % 1008,2 hPa 0,0 l/m 0 min 0 min 108 W/m 0,0 km/h (0 Bft) 95,74 %
09.02.2021 13:20 -1,0 C 2,8 C 1,7 C 74 % 1008,2 hPa 0,0 l/m 0 min 0 min 128 W/m 0,0 km/h (0 Bft) 95,74 %
09.02.2021 13:22 -0,9 C 3,3 C 2,3 C 74 % 1008,2 hPa 0,0 l/m 0 min 0 min 134 W/m 0,0 km/h (0 Bft) 95,74 %
09.02.2021 13:24 -0,8 C 3,3 C 2,3 C 74 % 1008,2 hPa 0,0 l/m 0 min 0 min 130 W/m 0,0 km/h (0 Bft) 97,83 %
09.02.2021 13:26 -0,8 C 2,8 C 1,2 C 73 % 1008,2 hPa 0,0 l/m 0 min 0 min 137 W/m 0,0 km/h (0 Bft) 95,74 %
09.02.2021 13:28 -0,8 C 2,2 C 0,0 C 73 % 1008,2 hPa 0,0 l/m 0 min 0 min 98 W/m 0,0 km/h (0 Bft) 95,74 %
09.02.2021 13:30 -0,9 C 2,2 C 0,6 C 72 % 1008,2 hPa 0,0 l/m 0 min 0 min 141 W/m 0,0 km/h (0 Bft) 95,74 %
09.02.2021 13:32 -0,9 C 2,8 C 1,2 C 73 % 1008,2 hPa 0,0 l/m 0 min 0 min 151 W/m 0,0 km/h (0 Bft) 97,87 %
09.02.2021 13:34 -1,0 C 2,2 C 0,0 C 72 % 1008,2 hPa 0,0 l/m 0 min 0 min 133 W/m 0,0 km/h (0 Bft) 97,87 %
09.02.2021 13:36 -1,0 C 3,3 C 1,7 C 72 % 1008,2 hPa 0,0 l/m 0 min 0 min 168 W/m 0,0 km/h (0 Bft) 97,83 %
09.02.2021 13:38 -1,0 C 3,9 C 2,3 C 72 % 1008,2 hPa 0,0 l/m 0 min 0 min 181 W/m 0,0 km/h (0 Bft) 95,74 %
09.02.2021 13:40 -1,0 C 4,4 C 3,4 C 72 % 1008,2 hPa 0,0 l/m 0 min 0 min 187 W/m 0,0 km/h (0 Bft) 97,87 %
09.02.2021 13:42 -0,9 C 4,4 C 3,4 C 72 % 1008,2 hPa 0,0 l/m 0 min 0 min 191 W/m 0,0 km/h (0 Bft) 97,87 %
09.02.2021 13:44 -0,9 C 4,4 C 3,9 C 72 % 1008,2 hPa 0,0 l/m 0 min 0 min 190 W/m 0,0 km/h (0 Bft) 97,87 %
09.02.2021 13:46 -0,9 C 4,4 C 3,9 C 71 % 1008,3 hPa 0,0 l/m 0 min 0 min 189 W/m 0,0 km/h (0 Bft) 97,83 %
09.02.2021 13:48 -0,8 C 5,0 C 3,9 C 71 % 1008,3 hPa 0,0 l/m 0 min 0 min 190 W/m 0,0 km/h (0 Bft) 95,74 %
09.02.2021 13:50 -0,7 C 4,4 C 3,9 C 71 % 1008,3 hPa 0,0 l/m 0 min 0 min 188 W/m 0,0 km/h (0 Bft) 100,00 %
09.02.2021 13:52 -0,7 C 4,4 C 4,5 C 71 % 1008,4 hPa 0,0 l/m 0 min 0 min 184 W/m 0,0 km/h (0 Bft) 97,87 %
09.02.2021 13:54 -0,6 C 5,0 C 4,5 C 71 % 1008,3 hPa 0,0 l/m 0 min 0 min 185 W/m 0,0 km/h (0 Bft) 100,00 %
09.02.2021 13:56 -0,6 C 5,0 C 5,0 C 71 % 1008,4 hPa 0,0 l/m 0 min 0 min 189 W/m 0,0 km/h (0 Bft) 97,87 %
09.02.2021 13:58 -0,6 C 4,4 C 4,5 C 70 % 1008,4 hPa 0,0 l/m 0 min 0 min 192 W/m 0,0 km/h (0 Bft) 100,00 %
09.02.2021 14:00 -0,6 C 4,4 C 3,9 C 69 % 1008,4 hPa 0,0 l/m 2 min 0 min 192 W/m 0,0 km/h (0 Bft) 100,00 %
09.02.2021 14:02 -0,6 C 4,4 C 3,9 C 70 % 1008,3 hPa 0,0 l/m 2 min 0 min 197 W/m 0,0 km/h (0 Bft) 97,92 %
09.02.2021 14:04 -0,7 C 3,3 C 3,4 C 68 % 1008,3 hPa 0,2 l/m 2 min 0 min 202 W/m 0,0 km/h (0 Bft) 97,87 %
09.02.2021 14:06 -0,6 C 4,4 C 3,9 C 69 % 1008,4 hPa 0,0 l/m 2 min 0 min 205 W/m 0,0 km/h (0 Bft) 95,74 %
09.02.2021 14:08 -0,6 C 4,4 C 4,5 C 71 % 1008,4 hPa 0,0 l/m 2 min 0 min 212 W/m 0,0 km/h (0 Bft) 97,87 %
09.02.2021 14:10 -0,6 C 4,4 C 4,5 C 70 % 1008,3 hPa 0,0 l/m 2 min 0 min 221 W/m 0,0 km/h (0 Bft) 95,65 %
09.02.2021 14:12 -0,5 C 5,0 C 5,0 C 71 % 1008,3 hPa 0,0 l/m 2 min 0 min 237 W/m 0,0 km/h (0 Bft) 97,87 %
09.02.2021 14:14 -0,4 C 5,0 C 5,0 C 71 % 1008,3 hPa 0,2 l/m 2 min 0 min 256 W/m 0,0 km/h (0 Bft) 95,74 %
09.02.2021 14:16 -0,4 C 5,0 C 5,0 C 71 % 1008,3 hPa 0,0 l/m 2 min 0 min 271 W/m 0,0 km/h (0 Bft) 93,62 %
09.02.2021 14:18 -0,3 C 5,0 C 5,0 C 70 % 1008,3 hPa 0,0 l/m 2 min 0 min 285 W/m 0,0 km/h (0 Bft) 97,87 %
09.02.2021 14:20 -0,2 C 5,0 C 5,0 C 70 % 1008,2 hPa 0,0 l/m 2 min 0 min 293 W/m 0,0 km/h (0 Bft) 97,87 %
09.02.2021 14:22 -0,2 C 4,4 C 4,5 C 70 % 1008,3 hPa 0,0 l/m 2 min 0 min 307 W/m 0,0 km/h (0 Bft) 97,83 %
09.02.2021 14:24 -0,2 C 4,4 C 4,5 C 70 % 1008,2 hPa 0,0 l/m 2 min 0 min 315 W/m 0,0 km/h (0 Bft) 95,74 %
09.02.2021 14:26 -0,2 C 5,0 C 5,0 C 69 % 1008,2 hPa 0,0 l/m 2 min 0 min 325 W/m 0,0 km/h (0 Bft) 95,74 %
09.02.2021 14:28 -0,2 C 4,4 C 4,5 C 69 % 1008,3 hPa 0,0 l/m 2 min 0 min 349 W/m 0,0 km/h (0 Bft) 97,87 %
09.02.2021 14:30 -0,1 C 5,0 C 4,5 C 69 % 1008,2 hPa 0,0 l/m 2 min 0 min 370 W/m 0,0 km/h (0 Bft) 97,87 %
09.02.2021 14:32 -0,1 C 4,4 C 3,9 C 69 % 1008,3 hPa 0,0 l/m 2 min 0 min 385 W/m 0,0 km/h (0 Bft) 97,92 %
09.02.2021 14:34 -0,1 C 4,4 C 4,5 C 69 % 1008,2 hPa 0,0 l/m 2 min 0 min 400 W/m 0,0 km/h (0 Bft) 95,65 %
09.02.2021 14:36 -0,1 C 4,4 C 3,9 C 70 % 1008,2 hPa 0,0 l/m 2 min 0 min 419 W/m 0,0 km/h (0 Bft) 100,00 %
09.02.2021 14:38 -0,1 C 3,9 C 3,9 C 68 % 1008,3 hPa 0,2 l/m 2 min 0 min 431 W/m 0,0 km/h (0 Bft) 100,00 %
09.02.2021 14:40 -0,1 C 3,9 C 3,4 C 68 % 1008,4 hPa 0,0 l/m 2 min 0 min 429 W/m 0,0 km/h (0 Bft) 100,00 %
09.02.2021 14:42 -0,2 C 3,9 C 3,9 C 68 % 1008,4 hPa 0,0 l/m 2 min 0 min 435 W/m 0,0 km/h (0 Bft) 100,00 %
09.02.2021 14:44 -0,2 C 4,4 C 3,9 C 69 % 1008,4 hPa 0,0 l/m 2 min 0 min 435 W/m 0,0 km/h (0 Bft) 95,74 %
09.02.2021 14:46 -0,1 C 4,4 C 3,9 C 70 % 1008,5 hPa 0,2 l/m 2 min 0 min 449 W/m 0,0 km/h (0 Bft) 97,83 %
09.02.2021 14:48 -0,2 C 3,9 C 2,8 C 68 % 1008,5 hPa 0,0 l/m 2 min 0 min 425 W/m 0,0 km/h (0 Bft) 97,87 %
09.02.2021 14:50 -0,2 C 3,9 C 1,7 C 69 % 1008,6 hPa 0,0 l/m 2 min 0 min 395 W/m 0,0 km/h (0 Bft) 97,87 %
09.02.2021 14:52 -0,1 C 3,9 C 1,7 C 69 % 1008,6 hPa 0,0 l/m 2 min 0 min 421 W/m 0,0 km/h (0 Bft) 95,74 %
09.02.2021 14:54 -0,1 C 4,4 C 1,7 C 69 % 1008,7 hPa 0,0 l/m 2 min 0 min 440 W/m 0,0 km/h (0 Bft) 97,87 %
09.02.2021 14:56 -0,1 C 3,9 C 1,2 C 70 % 1008,7 hPa 0,2 l/m 2 min 0 min 445 W/m 0,0 km/h (0 Bft) 97,87 %
09.02.2021 14:58 -0,1 C 3,3 C 1,2 C 69 % 1008,7 hPa 0,0 l/m 2 min 0 min 371 W/m 0,0 km/h (0 Bft) 97,83 %
09.02.2021 15:00 -0,1 C 2,8 C 1,7 C 69 % 1008,6 hPa 0,0 l/m 2 min 0 min 428 W/m 0,0 km/h (0 Bft) 95,74 %
09.02.2021 15:02 -0,1 C 2,8 C 2,3 C 69 % 1008,7 hPa 0,0 l/m 2 min 0 min 411 W/m 0,0 km/h (0 Bft) 97,87 %
09.02.2021 15:04 -0,1 C 2,8 C 2,3 C 69 % 1008,6 hPa 0,0 l/m 2 min 0 min 425 W/m 0,0 km/h (0 Bft) 95,74 %
09.02.2021 15:06 -0,1 C 2,8 C 2,8 C 69 % 1008,6 hPa 0,2 l/m 2 min 0 min 420 W/m 0,0 km/h (0 Bft) 97,87 %
09.02.2021 15:08 -0,1 C 2,8 C 2,3 C 69 % 1008,7 hPa 0,0 l/m 2 min 0 min 411 W/m 0,0 km/h (0 Bft) 100,00 %
09.02.2021 15:10 -0,2 C 2,8 C 1,2 C 69 % 1008,5 hPa 0,0 l/m 2 min 0 min 309 W/m 0,0 km/h (0 Bft) 97,83 %
09.02.2021 15:12 -0,2 C 2,8 C 0,0 C 69 % 1008,7 hPa 0,0 l/m 2 min 0 min 306 W/m 0,0 km/h (0 Bft) 97,87 %
09.02.2021 15:14 -0,3 C 2,8 C 0,6 C 69 % 1008,7 hPa 0,0 l/m 2 min 0 min 303 W/m 0,0 km/h (0 Bft) 100,00 %
09.02.2021 15:16 -0,4 C 2,8 C 0,6 C 69 % 1008,7 hPa 0,0 l/m 2 min 0 min 415 W/m 0,0 km/h (0 Bft) 97,87 %
09.02.2021 15:18 -0,4 C 3,3 C 1,2 C 69 % 1008,7 hPa 0,2 l/m 2 min 0 min 403 W/m 0,0 km/h (0 Bft) 100,00 %
09.02.2021 15:20 -0,5 C 2,8 C 0,6 C 69 % 1008,7 hPa 0,0 l/m 2 min 0 min 378 W/m 0,0 km/h (0 Bft) 100,00 %
09.02.2021 15:22 -0,5 C 2,2 C -0,5 C 68 % 1008,8 hPa 0,0 l/m 2 min 0 min 350 W/m 0,0 km/h (0 Bft) 97,83 %
09.02.2021 15:24 -0,5 C 2,2 C -1,1 C 68 % 1008,7 hPa 0,0 l/m 2 min 0 min 328 W/m 0,0 km/h (0 Bft) 100,00 %
09.02.2021 15:26 -0,5 C 1,7 C -1,6 C 69 % 1008,7 hPa 0,0 l/m 2 min 0 min 307 W/m 0,0 km/h (0 Bft) 100,00 %
09.02.2021 15:28 -0,6 C 1,1 C -1,6 C 69 % 1008,7 hPa 0,2 l/m 2 min 0 min 318 W/m 0,0 km/h (0 Bft) 100,00 %
09.02.2021 15:30 -0,7 C 1,1 C -2,2 C 68 % 1008,8 hPa 0,0 l/m 2 min 0 min 318 W/m 0,0 km/h (0 Bft) 100,00 %
09.02.2021 15:32 -0,7 C 0,0 C -2,7 C 68 % 1008,8 hPa 0,0 l/m 2 min 0 min 246 W/m 0,0 km/h (0 Bft) 100,00 %
09.02.2021 15:34 -0,9 C -0,6 C -3,8 C 68 % 1008,9 hPa 0,0 l/m 2 min 0 min 166 W/m 0,0 km/h (0 Bft) 100,00 %
09.02.2021 15:36 -1,0 C -0,6 C -3,8 C 68 % 1008,9 hPa 0,0 l/m 2 min 0 min 177 W/m 0,0 km/h (0 Bft) 100,00 %
09.02.2021 15:38 -1,1 C 0,0 C -2,7 C 68 % 1009,0 hPa 0,0 l/m 2 min 0 min 265 W/m 0,0 km/h (0 Bft) 100,00 %
09.02.2021 15:40 -1,1 C 0,6 C -1,6 C 69 % 1009,0 hPa 0,2 l/m 2 min 0 min 319 W/m 0,0 km/h (0 Bft) 100,00 %
09.02.2021 15:42 -1,2 C 0,6 C -1,6 C 69 % 1009,0 hPa 0,0 l/m 2 min 0 min 309 W/m 0,0 km/h (0 Bft) 100,00 %
09.02.2021 15:44 -1,2 C 0,6 C -2,7 C 69 % 1008,9 hPa 0,0 l/m 2 min 0 min 252 W/m 0,0 km/h (0 Bft) 100,00 %
09.02.2021 15:46 -1,4 C 0,0 C -3,3 C 69 % 1008,9 hPa 0,0 l/m 2 min 0 min 239 W/m 0,0 km/h (0 Bft) 100,00 %
09.02.2021 15:48 -1,4 C 0,0 C -2,7 C 70 % 1008,9 hPa 0,0 l/m 2 min 0 min 287 W/m 0,0 km/h (0 Bft) 100,00 %
09.02.2021 15:50 -1,5 C 0,6 C -2,2 C 70 % 1008,9 hPa 0,0 l/m 2 min 0 min 242 W/m 0,0 km/h (0 Bft) 100,00 %
09.02.2021 15:52 -1,5 C 0,6 C -1,1 C 70 % 1009,0 hPa 0,0 l/m 2 min 0 min 296 W/m 0,0 km/h (0 Bft) 100,00 %
09.02.2021 15:54 -1,6 C 0,6 C -1,1 C 70 % 1009,0 hPa 0,2 l/m 2 min 0 min 282 W/m 0,0 km/h (0 Bft) 100,00 %
09.02.2021 15:56 -1,6 C 0,0 C -1,1 C 70 % 1008,9 hPa 0,0 l/m 2 min 0 min 272 W/m 0,0 km/h (0 Bft) 97,87 %
09.02.2021 15:58 -1,7 C 0,6 C -1,1 C 70 % 1008,9 hPa 0,0 l/m 2 min 0 min 282 W/m 0,0 km/h (0 Bft) 100,00 %
09.02.2021 16:00 -1,7 C 0,6 C -0,5 C 71 % 1008,9 hPa 0,0 l/m 2 min 0 min 274 W/m 0,0 km/h (0 Bft) 97,87 %
09.02.2021 16:02 -1,7 C 0,6 C -0,5 C 71 % 1008,9 hPa 0,0 l/m 2 min 0 min 266 W/m 0,0 km/h (0 Bft) 98,08 %
09.02.2021 16:04 -1,7 C 0,0 C -0,5 C 70 % 1008,9 hPa 0,0 l/m 2 min 0 min 263 W/m 0,0 km/h (0 Bft) 100,00 %
09.02.2021 16:06 -1,8 C -0,6 C -1,1 C 70 % 1008,9 hPa 0,0 l/m 2 min 0 min 251 W/m 0,0 km/h (0 Bft) 100,00 %
09.02.2021 16:08 -1,9 C -0,6 C -1,6 C 70 % 1008,9 hPa 0,0 l/m 2 min 0 min 226 W/m 0,0 km/h (0 Bft) 100,00 %
09.02.2021 16:10 -2,0 C -0,6 C -1,1 C 70 % 1008,9 hPa 0,0 l/m 2 min 0 min 227 W/m 0,0 km/h (0 Bft) 100,00 %
09.02.2021 16:12 -2,0 C -0,6 C -1,6 C 70 % 1008,9 hPa 0,0 l/m 2 min 0 min 220 W/m 0,0 km/h (0 Bft) 100,00 %
09.02.2021 16:14 -2,0 C -0,6 C -2,2 C 70 % 1008,9 hPa 0,2 l/m 2 min 0 min 218 W/m 0,0 km/h (0 Bft) 100,00 %
09.02.2021 16:16 -2,1 C -0,6 C -3,8 C 70 % 1008,9 hPa 0,0 l/m 2 min 0 min 209 W/m 0,0 km/h (0 Bft) 100,00 %
09.02.2021 16:18 -2,1 C -0,6 C -5,5 C 70 % 1008,9 hPa 0,0 l/m 2 min 0 min 199 W/m 0,0 km/h (0 Bft) 100,00 %
09.02.2021 16:20 -2,2 C -0,6 C -6,1 C 71 % 1008,9 hPa 0,0 l/m 2 min 0 min 196 W/m 0,0 km/h (0 Bft) 100,00 %
09.02.2021 16:22 -2,2 C -1,1 C -6,6 C 71 % 1008,9 hPa 0,0 l/m 2 min 0 min 187 W/m 0,0 km/h (0 Bft) 100,00 %
09.02.2021 16:24 -2,3 C -1,1 C -6,6 C 71 % 1008,9 hPa 0,0 l/m 2 min 0 min 181 W/m 0,0 km/h (0 Bft) 97,87 %
09.02.2021 16:26 -2,3 C -1,1 C -7,2 C 71 % 1009,0 hPa 0,0 l/m 2 min 0 min 172 W/m 0,0 km/h (0 Bft) 97,87 %
09.02.2021 16:28 -2,4 C -1,7 C -7,2 C 71 % 1009,0 hPa 0,0 l/m 2 min 0 min 170 W/m 0,0 km/h (0 Bft) 93,62 %
09.02.2021 16:30 -2,4 C -1,7 C -7,2 C 71 % 1009,0 hPa 0,2 l/m 2 min 0 min 158 W/m 0,0 km/h (0 Bft) 97,87 %
09.02.2021 16:32 -2,5 C -1,7 C -7,7 C 71 % 1009,0 hPa 0,0 l/m 2 min 0 min 156 W/m 0,0 km/h (0 Bft) 97,87 %
09.02.2021 16:34 -2,5 C -2,2 C -7,7 C 71 % 1008,9 hPa 0,0 l/m 2 min 0 min 155 W/m 0,0 km/h (0 Bft) 95,74 %
09.02.2021 16:36 -2,6 C -2,2 C -7,7 C 71 % 1008,9 hPa 0,0 l/m 2 min 0 min 150 W/m 0,0 km/h (0 Bft) 97,87 %
09.02.2021 16:38 -2,7 C -2,2 C -7,7 C 71 % 1009,0 hPa 0,0 l/m 2 min 0 min 141 W/m 0,0 km/h (0 Bft) 97,87 %
09.02.2021 16:40 -2,9 C -2,8 C -7,7 C 71 % 1008,9 hPa 0,0 l/m 2 min 0 min 132 W/m 0,0 km/h (0 Bft) 97,87 %
09.02.2021 16:42 -2,9 C -3,3 C -7,7 C 71 % 1009,0 hPa 0,0 l/m 2 min 0 min 118 W/m 0,0 km/h (0 Bft) 97,87 %
09.02.2021 16:44 -3,0 C -3,9 C -8,3 C 71 % 1009,0 hPa 0,0 l/m 2 min 0 min 104 W/m 0,0 km/h (0 Bft) 97,83 %
09.02.2021 16:46 -3,1 C -3,9 C -8,3 C 72 % 1008,9 hPa 0,0 l/m 0 min 0 min 57 W/m 0,0 km/h (0 Bft) 91,49 %
09.02.2021 16:48 -3,2 C -4,4 C -8,3 C 72 % 1008,9 hPa 0,0 l/m 0 min 0 min 46 W/m 0,0 km/h (0 Bft) 95,74 %
09.02.2021 16:50 -3,3 C -4,4 C -8,3 C 72 % 1009,0 hPa 0,0 l/m 0 min 0 min 41 W/m 0,0 km/h (0 Bft) 93,62 %
09.02.2021 16:52 -3,4 C -4,4 C -8,3 C 72 % 1009,0 hPa 0,0 l/m 0 min 0 min 35 W/m 0,0 km/h (0 Bft) 95,74 %
09.02.2021 16:54 -3,5 C -5,0 C -8,3 C 72 % 1009,0 hPa 0,2 l/m 0 min 0 min 32 W/m 0,0 km/h (0 Bft) 93,62 %
09.02.2021 16:56 -3,6 C -5,0 C -8,8 C 73 % 1009,1 hPa 0,0 l/m 0 min 0 min 34 W/m 0,0 km/h (0 Bft) 95,65 %
09.02.2021 16:58 -3,7 C -5,0 C -8,8 C 73 % 1009,1 hPa 0,0 l/m 0 min 0 min 33 W/m 0,0 km/h (0 Bft) 95,74 %
09.02.2021 17:00 -3,8 C -5,0 C -8,8 C 73 % 1009,1 hPa 0,0 l/m 0 min 0 min 36 W/m 0,0 km/h (0 Bft) 95,74 %
09.02.2021 17:02 -4,0 C -5,0 C -8,8 C 73 % 1009,1 hPa 0,0 l/m 0 min 0 min 36 W/m 0,0 km/h (0 Bft) 91,49 %
09.02.2021 17:04 -4,0 C -5,0 C -8,8 C 74 % 1009,0 hPa 0,0 l/m 0 min 0 min 34 W/m 0,0 km/h (0 Bft) 93,62 %
09.02.2021 17:06 -4,1 C -5,6 C -8,8 C 74 % 1008,9 hPa 0,0 l/m 0 min 0 min 33 W/m 0,0 km/h (0 Bft) 93,62 %
09.02.2021 17:08 -4,1 C -5,6 C -8,8 C 74 % 1008,9 hPa 0,0 l/m 2 min 0 min 40 W/m 0,0 km/h (0 Bft) 95,65 %
09.02.2021 17:10 -4,2 C -5,6 C -8,8 C 75 % 1008,8 hPa 0,0 l/m 2 min 0 min 43 W/m 0,0 km/h (0 Bft) 95,74 %
09.02.2021 17:12 -4,3 C -5,0 C -8,8 C 75 % 1008,7 hPa 0,0 l/m 2 min 0 min 31 W/m 0,0 km/h (0 Bft) 97,87 %
09.02.2021 17:14 -4,3 C -5,6 C -8,8 C 75 % 1008,7 hPa 0,0 l/m 2 min 0 min 24 W/m 0,0 km/h (0 Bft) 95,74 %
09.02.2021 17:16 -4,4 C -5,6 C -8,8 C 75 % 1008,7 hPa 0,0 l/m 0 min 0 min 18 W/m 0,0 km/h (0 Bft) 91,49 %
09.02.2021 17:18 -4,5 C -5,6 C -8,8 C 76 % 1008,7 hPa 0,0 l/m 0 min 0 min 18 W/m 0,0 km/h (0 Bft) 89,36 %
09.02.2021 17:20 -4,5 C -5,6 C -8,8 C 75 % 1008,8 hPa 0,0 l/m 0 min 0 min 18 W/m 0,0 km/h (0 Bft) 86,96 %
09.02.2021 17:22 -4,6 C -6,1 C -8,8 C 76 % 1008,7 hPa 0,0 l/m 0 min 0 min 18 W/m 0,0 km/h (0 Bft) 89,36 %
09.02.2021 17:24 -4,7 C -6,1 C -9,4 C 76 % 1008,8 hPa 0,0 l/m 0 min 0 min 17 W/m 0,0 km/h (0 Bft) 87,23 %
09.02.2021 17:26 -4,7 C -6,1 C -9,4 C 76 % 1008,7 hPa 0,0 l/m 0 min 0 min 13 W/m 0,0 km/h (0 Bft) 93,62 %
09.02.2021 17:28 -4,8 C -6,1 C -9,4 C 76 % 1008,7 hPa 0,0 l/m 0 min 0 min 12 W/m 0,0 km/h (0 Bft) 91,49 %
09.02.2021 17:30 -4,9 C -6,1 C -9,4 C 76 % 1008,7 hPa 0,0 l/m 0 min 0 min 12 W/m 0,0 km/h (0 Bft) 95,65 %
09.02.2021 17:32 -4,9 C -6,1 C -9,4 C 76 % 1008,7 hPa 0,0 l/m 0 min 0 min 10 W/m 0,0 km/h (0 Bft) 93,62 %
09.02.2021 17:34 -4,9 C -6,1 C -9,4 C 76 % 1008,7 hPa 0,0 l/m 0 min 0 min 7 W/m 0,0 km/h (0 Bft) 95,74 %
09.02.2021 17:36 -5,0 C -6,1 C -9,4 C 77 % 1008,7 hPa 0,0 l/m 0 min 0 min 5 W/m 0,0 km/h (0 Bft) 91,49 %
09.02.2021 17:38 -5,0 C -6,1 C -9,4 C 77 % 1008,7 hPa 0,0 l/m 0 min 0 min 2 W/m 0,0 km/h (0 Bft) 93,62 %
09.02.2021 17:40 -5,1 C -6,1 C -9,4 C 77 % 1008,7 hPa 0,0 l/m 0 min 0 min 0 W/m 0,0 km/h (0 Bft) 95,74 %
09.02.2021 17:42 -5,1 C -6,1 C -8,8 C 77 % 1008,7 hPa 0,0 l/m 0 min 0 min 0 W/m 0,0 km/h (0 Bft) 93,48 %
09.02.2021 17:44 -5,1 C -6,1 C -9,4 C 78 % 1008,7 hPa 0,0 l/m 0 min 0 min 0 W/m 0,0 km/h (0 Bft) 95,74 %
09.02.2021 17:46 -5,1 C -6,1 C -9,4 C 78 % 1008,8 hPa 0,0 l/m 0 min 0 min 0 W/m 0,0 km/h (0 Bft) 82,98 %
09.02.2021 17:48 -5,2 C -6,1 C -8,8 C 78 % 1008,8 hPa 0,0 l/m 0 min 0 min 0 W/m 0,0 km/h (0 Bft) 60,53 %
09.02.2021 17:50 -5,2 C -6,1 C -9,4 C 78 % 1008,7 hPa 0,0 l/m 0 min 0 min 0 W/m 0,0 km/h (0 Bft) 97,14 %
09.02.2021 17:52 -5,2 C -6,1 C -9,4 C 78 % 1008,5 hPa 0,0 l/m 0 min 0 min 0 W/m 0,0 km/h (0 Bft) 94,92 %
09.02.2021 17:54 -5,3 C -6,1 C -9,4 C 79 % 1008,5 hPa 0,0 l/m 0 min 0 min 0 W/m 0,0 km/h (0 Bft) 94,29 %
09.02.2021 17:56 -5,3 C -6,1 C -9,4 C 79 % 1008,4 hPa 0,0 l/m 0 min 0 min 0 W/m 0,0 km/h (0 Bft) 98,28 %
09.02.2021 17:58 -5,4 C -6,1 C -9,4 C 79 % 1008,5 hPa 0,0 l/m 0 min 0 min 0 W/m 0,0 km/h (0 Bft) 97,14 %
09.02.2021 18:00 -5,4 C -6,1 C -9,4 C 79 % 1008,4 hPa 0,0 l/m 0 min 0 min 0 W/m 0,0 km/h (0 Bft) 97,87 %
09.02.2021 18:02 -5,5 C -6,1 C -9,4 C 79 % 1008,5 hPa 0,0 l/m 0 min 0 min 0 W/m 0,0 km/h (0 Bft) 98,21 %
09.02.2021 18:04 -5,5 C -6,7 C -9,4 C 79 % 1008,5 hPa 0,0 l/m 0 min 0 min 0 W/m 0,0 km/h (0 Bft) 95,74 %
09.02.2021 18:08 -5,6 C -6,1 C -9,4 C 79 % 1008,5 hPa 0,0 l/m 0 min 0 min 0 W/m 0,0 km/h (0 Bft) 98,92 %
09.02.2021 18:10 -5,6 C -6,1 C -9,4 C 79 % 1008,3 hPa 0,0 l/m 0 min 0 min 0 W/m 0,0 km/h (0 Bft) 100,00 %
09.02.2021 18:12 -5,6 C -6,1 C -9,4 C 80 % 1008,3 hPa 0,0 l/m 0 min 0 min 0 W/m 0,0 km/h (0 Bft) 95,74 %
09.02.2021 18:14 -5,6 C -6,1 C -9,4 C 80 % 1008,3 hPa 0,0 l/m 0 min 0 min 0 W/m 0,0 km/h (0 Bft) 100,00 %
09.02.2021 18:16 -5,6 C -6,1 C -9,4 C 80 % 1008,2 hPa 0,0 l/m 0 min 0 min 0 W/m 0,0 km/h (0 Bft) 100,00 %
09.02.2021 18:18 -5,6 C -6,1 C -9,4 C 80 % 1008,3 hPa 0,0 l/m 0 min 0 min 0 W/m 0,0 km/h (0 Bft) 100,00 %
09.02.2021 18:20 -5,6 C -6,1 C -9,4 C 80 % 1008,3 hPa 0,0 l/m 0 min 0 min 0 W/m 0,0 km/h (0 Bft) 100,00 %
09.02.2021 18:22 -5,7 C -6,1 C -9,4 C 80 % 1008,3 hPa 0,0 l/m 0 min 0 min 0 W/m 0,0 km/h (0 Bft) 97,87 %
09.02.2021 18:24 -5,7 C -6,1 C -9,4 C 80 % 1008,4 hPa 0,0 l/m 0 min 0 min 0 W/m 0,0 km/h (0 Bft) 97,87 %
09.02.2021 18:26 -5,7 C -6,7 C -9,4 C 80 % 1008,4 hPa 0,0 l/m 0 min 0 min 0 W/m 0,0 km/h (0 Bft) 100,00 %
09.02.2021 18:28 -5,7 C -6,7 C -9,4 C 80 % 1008,5 hPa 0,0 l/m 0 min 0 min 0 W/m 0,0 km/h (0 Bft) 100,00 %
09.02.2021 18:30 -5,8 C -6,7 C -9,4 C 81 % 1008,5 hPa 0,0 l/m 0 min 0 min 0 W/m 0,0 km/h (0 Bft) 97,83 %
09.02.2021 18:32 -5,8 C -6,7 C -9,4 C 81 % 1008,5 hPa 0,0 l/m 0 min 0 min 0 W/m 0,0 km/h (0 Bft) 97,87 %
09.02.2021 18:34 -5,8 C -6,7 C -9,4 C 81 % 1008,5 hPa 0,0 l/m 0 min 0 min 0 W/m 0,0 km/h (0 Bft) 100,00 %
09.02.2021 18:36 -5,8 C -6,7 C -9,4 C 81 % 1008,6 hPa 0,0 l/m 0 min 0 min 0 W/m 0,0 km/h (0 Bft) 97,87 %
09.02.2021 18:38 -5,8 C -6,7 C -9,4 C 81 % 1008,6 hPa 0,0 l/m 0 min 0 min 0 W/m 0,0 km/h (0 Bft) 100,00 %
09.02.2021 18:40 -5,9 C -6,7 C -9,4 C 81 % 1008,7 hPa 0,0 l/m 0 min 0 min 0 W/m 0,0 km/h (0 Bft) 97,87 %
09.02.2021 18:42 -5,9 C -6,7 C -9,4 C 81 % 1008,7 hPa 0,0 l/m 0 min 0 min 0 W/m 0,0 km/h (0 Bft) 100,00 %
09.02.2021 18:44 -5,9 C -6,7 C -9,4 C 81 % 1008,7 hPa 0,0 l/m 0 min 0 min 0 W/m 0,0 km/h (0 Bft) 100,00 %
09.02.2021 18:46 -5,9 C -6,7 C -9,4 C 81 % 1008,7 hPa 0,0 l/m 0 min 0 min 0 W/m 0,0 km/h (0 Bft) 100,00 %
09.02.2021 18:48 -5,9 C -6,7 C -9,4 C 81 % 1008,6 hPa 0,0 l/m 0 min 0 min 0 W/m 0,0 km/h (0 Bft) 100,00 %
09.02.2021 18:50 -5,9 C -6,7 C -9,4 C 81 % 1008,6 hPa 0,0 l/m 0 min 0 min 0 W/m 0,0 km/h (0 Bft) 97,87 %
09.02.2021 18:52 -6,0 C -6,7 C -9,4 C 81 % 1008,6 hPa 0,0 l/m 0 min 0 min 0 W/m 0,0 km/h (0 Bft) 95,74 %
09.02.2021 18:54 -6,0 C -6,7 C -10,0 C 81 % 1008,7 hPa 0,0 l/m 0 min 0 min 0 W/m 0,0 km/h (0 Bft) 100,00 %
09.02.2021 18:56 -6,0 C -6,7 C -10,0 C 81 % 1008,7 hPa 0,0 l/m 0 min 0 min 0 W/m 0,0 km/h (0 Bft) 100,00 %
09.02.2021 18:58 -6,0 C -6,7 C -10,0 C 81 % 1008,7 hPa 0,0 l/m 0 min 0 min 0 W/m 0,0 km/h (0 Bft) 100,00 %
09.02.2021 19:00 -6,0 C -6,7 C -10,0 C 81 % 1008,7 hPa 0,0 l/m 0 min 0 min 0 W/m 0,0 km/h (0 Bft) 97,87 %
09.02.2021 19:02 -6,0 C -6,7 C -9,4 C 82 % 1008,7 hPa 0,0 l/m 0 min 0 min 0 W/m 0,0 km/h (0 Bft) 97,87 %
09.02.2021 19:04 -6,1 C -6,7 C -9,4 C 82 % 1008,8 hPa 0,0 l/m 0 min 0 min 0 W/m 0,0 km/h (0 Bft) 97,87 %
09.02.2021 19:06 -6,1 C -6,7 C -9,4 C 82 % 1008,8 hPa 0,0 l/m 0 min 0 min 0 W/m 0,0 km/h (0 Bft) 100,00 %
09.02.2021 19:08 -6,1 C -6,7 C -9,4 C 82 % 1008,8 hPa 0,0 l/m 0 min 0 min 0 W/m 0,0 km/h (0 Bft) 97,87 %
09.02.2021 19:10 -6,1 C -6,7 C -9,4 C 82 % 1008,9 hPa 0,0 l/m 0 min 0 min 0 W/m 0,0 km/h (0 Bft) 95,74 %
09.02.2021 19:12 -6,1 C -6,7 C -9,4 C 82 % 1008,9 hPa 0,0 l/m 0 min 0 min 0 W/m 0,0 km/h (0 Bft) 97,87 %
09.02.2021 19:14 -6,1 C -6,7 C -9,4 C 82 % 1008,9 hPa 0,0 l/m 0 min 0 min 0 W/m 0,0 km/h (0 Bft) 97,87 %
09.02.2021 19:16 -6,1 C -6,7 C -9,4 C 82 % 1009,0 hPa 0,0 l/m 0 min 0 min 0 W/m 0,0 km/h (0 Bft) 76,60 %
09.02.2021 19:18 -6,1 C -6,7 C -9,4 C 82 % 1008,9 hPa 0,0 l/m 0 min 0 min 0 W/m 0,0 km/h (0 Bft) 75,56 %
09.02.2021 19:20 -6,1 C -6,7 C -9,4 C 82 % 1008,9 hPa 0,0 l/m 0 min 0 min 0 W/m 0,0 km/h (0 Bft) 95,74 %
09.02.2021 19:22 -6,1 C -6,7 C -9,4 C 82 % 1009,0 hPa 0,0 l/m 0 min 0 min 0 W/m 0,0 km/h (0 Bft) 97,87 %
09.02.2021 19:24 -6,1 C -6,7 C -9,4 C 82 % 1009,0 hPa 0,0 l/m 0 min 0 min 0 W/m 0,0 km/h (0 Bft) 98,00 %
09.02.2021 19:26 -6,1 C -6,7 C -9,4 C 82 % 1009,0 hPa 0,0 l/m 0 min 0 min 0 W/m 0,0 km/h (0 Bft) 97,14 %
09.02.2021 19:28 -6,1 C -6,7 C -9,4 C 82 % 1009,0 hPa 0,0 l/m 0 min 0 min 0 W/m 0,0 km/h (0 Bft) 92,45 %
09.02.2021 19:30 -6,1 C -6,7 C -9,4 C 82 % 1009,0 hPa 0,0 l/m 0 min 0 min 0 W/m 0,0 km/h (0 Bft) 95,74 %
09.02.2021 19:32 -6,1 C -6,7 C -9,4 C 82 % 1009,0 hPa 0,0 l/m 0 min 0 min 0 W/m 0,0 km/h (0 Bft) 95,00 %
09.02.2021 19:34 -6,1 C -6,7 C -9,4 C 82 % 1009,1 hPa 0,0 l/m 0 min 0 min 0 W/m 0,0 km/h (0 Bft) 96,23 %
09.02.2021 19:36 -6,1 C -6,7 C -9,4 C 82 % 1009,0 hPa 0,0 l/m 0 min 0 min 0 W/m 0,0 km/h (0 Bft) 97,87 %
09.02.2021 19:38 -6,1 C -6,7 C -9,4 C 83 % 1009,0 hPa 0,0 l/m 0 min 0 min 0 W/m 0,0 km/h (0 Bft) 97,87 %
09.02.2021 19:40 -6,1 C -6,7 C -9,4 C 83 % 1009,1 hPa 0,0 l/m 0 min 0 min 0 W/m 0,0 km/h (0 Bft) 100,00 %
09.02.2021 19:42 -6,1 C -6,7 C -9,4 C 83 % 1009,1 hPa 0,0 l/m 0 min 0 min 0 W/m 0,0 km/h (0 Bft) 97,83 %
09.02.2021 19:44 -6,1 C -6,7 C -9,4 C 83 % 1009,1 hPa 0,0 l/m 0 min 0 min 0 W/m 0,0 km/h (0 Bft) 94,34 %
09.02.2021 19:46 -6,1 C -6,7 C -9,4 C 83 % 1009,0 hPa 0,0 l/m 0 min 0 min 0 W/m 0,0 km/h (0 Bft) 100,00 %
09.02.2021 19:48 -6,1 C -6,7 C -9,4 C 83 % 1009,0 hPa 0,0 l/m 0 min 0 min 0 W/m 0,0 km/h (0 Bft) 95,74 %
09.02.2021 19:50 -6,1 C -6,7 C -9,4 C 83 % 1009,1 hPa 0,0 l/m 0 min 0 min 0 W/m 0,0 km/h (0 Bft) 100,00 %
09.02.2021 19:52 -6,1 C -6,7 C -9,4 C 83 % 1009,1 hPa 0,0 l/m 0 min 0 min 0 W/m 0,0 km/h (0 Bft) 100,00 %
09.02.2021 19:54 -6,1 C -6,7 C -10,0 C 83 % 1009,1 hPa 0,0 l/m 0 min 0 min 0 W/m 0,0 km/h (0 Bft) 100,00 %
09.02.2021 19:56 -6,2 C -6,7 C -10,0 C 83 % 1009,0 hPa 0,0 l/m 0 min 0 min 0 W/m 0,0 km/h (0 Bft) 95,74 %
09.02.2021 19:58 -6,2 C -6,7 C -10,0 C 83 % 1009,0 hPa 0,0 l/m 0 min 0 min 0 W/m 0,0 km/h (0 Bft) 97,87 %
09.02.2021 20:00 -6,2 C -6,7 C -10,0 C 83 % 1009,1 hPa 0,0 l/m 0 min 0 min 0 W/m 0,0 km/h (0 Bft) 93,62 %
09.02.2021 20:02 -6,2 C -7,2 C -10,0 C 83 % 1009,0 hPa 0,0 l/m 0 min 0 min 0 W/m 0,0 km/h (0 Bft) 97,87 %
09.02.2021 20:04 -6,2 C -7,2 C -10,0 C 83 % 1009,1 hPa 0,0 l/m 0 min 0 min 0 W/m 0,0 km/h (0 Bft) 97,83 %
09.02.2021 20:06 -6,2 C -7,2 C -10,0 C 83 % 1009,1 hPa 0,0 l/m 0 min 0 min 0 W/m 0,0 km/h (0 Bft) 97,87 %
09.02.2021 20:08 -6,2 C -7,2 C -10,0 C 83 % 1009,1 hPa 0,0 l/m 0 min 0 min 0 W/m 0,0 km/h (0 Bft) 97,87 %
09.02.2021 20:10 -6,2 C -7,2 C -10,0 C 83 % 1009,1 hPa 0,0 l/m 0 min 0 min 0 W/m 0,0 km/h (0 Bft) 97,87 %
09.02.2021 20:12 -6,3 C -7,2 C -10,0 C 83 % 1009,1 hPa 0,0 l/m 0 min 0 min 0 W/m 0,0 km/h (0 Bft) 97,87 %
09.02.2021 20:14 -6,3 C -7,2 C -10,0 C 83 % 1009,1 hPa 0,0 l/m 0 min 0 min 0 W/m 0,0 km/h (0 Bft) 95,74 %
09.02.2021 20:16 -6,3 C -6,7 C -10,0 C 83 % 1009,1 hPa 0,0 l/m 0 min 0 min 0 W/m 0,0 km/h (0 Bft) 97,83 %
09.02.2021 20:18 -6,4 C -6,7 C -10,0 C 84 % 1009,1 hPa 0,0 l/m 0 min 0 min 0 W/m 0,0 km/h (0 Bft) 97,87 %
09.02.2021 20:20 -6,4 C -7,2 C -10,0 C 84 % 1009,1 hPa 0,0 l/m 0 min 0 min 0 W/m 0,0 km/h (0 Bft) 97,87 %
09.02.2021 20:22 -6,4 C -7,2 C -10,0 C 84 % 1009,1 hPa 0,0 l/m 0 min 0 min 0 W/m 0,0 km/h (0 Bft) 97,87 %
09.02.2021 20:24 -6,4 C -7,2 C -10,0 C 84 % 1009,0 hPa 0,0 l/m 0 min 0 min 0 W/m 0,0 km/h (0 Bft) 97,87 %
09.02.2021 20:26 -6,4 C -7,2 C -10,0 C 84 % 1009,1 hPa 0,0 l/m 0 min 0 min 0 W/m 0,0 km/h (0 Bft) 95,74 %
09.02.2021 20:27 -6,4 C -7,2 C -10,0 C 84 % 1009,0 hPa 0,0 l/m 0 min 0 min 0 W/m 0,0 km/h (0 Bft) 97,83 %
09.02.2021 20:30 -6,4 C -7,2 C -10,0 C 84 % 1009,0 hPa 0,0 l/m 0 min 0 min 0 W/m 0,0 km/h (0 Bft) 95,74 %
09.02.2021 20:32 -6,5 C -7,2 C -10,0 C 84 % 1009,0 hPa 0,0 l/m 0 min 0 min 0 W/m 0,0 km/h (0 Bft) 95,74 %
09.02.2021 20:34 -6,5 C -7,2 C -10,0 C 84 % 1009,1 hPa 0,0 l/m 0 min 0 min 0 W/m 0,0 km/h (0 Bft) 95,74 %
09.02.2021 20:36 -6,5 C -7,2 C -10,0 C 84 % 1009,1 hPa 0,0 l/m 0 min 0 min 0 W/m 0,0 km/h (0 Bft) 95,74 %
09.02.2021 20:38 -6,5 C -7,2 C -10,0 C 84 % 1009,1 hPa 0,0 l/m 0 min 0 min 0 W/m 0,0 km/h (0 Bft) 97,87 %
09.02.2021 20:40 -6,5 C -7,2 C -10,0 C 84 % 1009,1 hPa 0,0 l/m 0 min 0 min 0 W/m 0,0 km/h (0 Bft) 95,65 %
09.02.2021 20:42 -6,5 C -7,2 C -10,0 C 84 % 1009,2 hPa 0,0 l/m 0 min 0 min 0 W/m 0,0 km/h (0 Bft) 100,00 %
09.02.2021 20:44 -6,5 C -7,2 C -10,0 C 84 % 1009,2 hPa 0,0 l/m 0 min 0 min 0 W/m 0,0 km/h (0 Bft) 97,87 %
09.02.2021 20:46 -6,5 C -7,2 C -10,0 C 84 % 1009,3 hPa 0,0 l/m 0 min 0 min 0 W/m 0,0 km/h (0 Bft) 97,87 %
09.02.2021 20:48 -6,5 C -7,2 C -10,0 C 84 % 1009,2 hPa 0,0 l/m 0 min 0 min 0 W/m 0,0 km/h (0 Bft) 95,74 %
09.02.2021 20:50 -6,5 C -7,2 C -10,0 C 84 % 1009,2 hPa 0,0 l/m 0 min 0 min 0 W/m 0,0 km/h (0 Bft) 97,83 %
09.02.2021 20:52 -6,5 C -7,2 C -10,0 C 84 % 1009,3 hPa 0,0 l/m 0 min 0 min 0 W/m 0,0 km/h (0 Bft) 95,74 %
09.02.2021 20:54 -6,5 C -7,2 C -10,0 C 84 % 1009,3 hPa 0,0 l/m 0 min 0 min 0 W/m 0,0 km/h (0 Bft) 97,87 %
09.02.2021 20:56 -6,5 C -7,2 C -9,4 C 84 % 1009,3 hPa 0,0 l/m 0 min 0 min 0 W/m 0,0 km/h (0 Bft) 100,00 %
09.02.2021 20:58 -6,5 C -7,2 C -9,4 C 84 % 1009,4 hPa 0,0 l/m 0 min 0 min 0 W/m 0,0 km/h (0 Bft) 100,00 %
09.02.2021 21:00 -6,5 C -7,2 C -9,4 C 84 % 1009,3 hPa 0,0 l/m 0 min 0 min 0 W/m 0,0 km/h (0 Bft) 100,00 %
09.02.2021 21:02 -6,5 C -7,2 C -9,4 C 84 % 1009,4 hPa 0,0 l/m 0 min 0 min 0 W/m 0,0 km/h (0 Bft) 97,83 %
09.02.2021 21:04 -6,5 C -7,2 C -9,4 C 84 % 1009,4 hPa 0,0 l/m 0 min 0 min 0 W/m 0,0 km/h (0 Bft) 95,74 %
09.02.2021 21:06 -6,5 C -7,2 C -9,4 C 84 % 1009,4 hPa 0,0 l/m 0 min 0 min 0 W/m 0,0 km/h (0 Bft) 97,87 %
09.02.2021 21:08 -6,5 C -7,2 C -9,4 C 84 % 1009,4 hPa 0,0 l/m 0 min 0 min 0 W/m 0,0 km/h (0 Bft) 97,87 %
09.02.2021 21:10 -6,5 C -7,2 C -10,0 C 84 % 1009,4 hPa 0,0 l/m 0 min 0 min 0 W/m 0,0 km/h (0 Bft) 97,87 %
09.02.2021 21:12 -6,5 C -7,2 C -10,0 C 84 % 1009,4 hPa 0,0 l/m 0 min 0 min 0 W/m 0,0 km/h (0 Bft) 44,74 %
09.02.2021 21:14 -6,5 C -7,2 C -9,4 C 84 % 1009,4 hPa 0,0 l/m 0 min 0 min 0 W/m 0,0 km/h (0 Bft) 97,67 %
09.02.2021 21:16 -6,5 C -7,2 C -9,4 C 84 % 1009,4 hPa 0,0 l/m 0 min 0 min 0 W/m 0,0 km/h (0 Bft) 97,87 %
09.02.2021 21:18 -6,5 C -7,2 C -9,4 C 84 % 1009,4 hPa 0,0 l/m 0 min 0 min 0 W/m 0,0 km/h (0 Bft) 97,87 %
09.02.2021 21:20 -6,5 C -7,2 C -9,4 C 84 % 1009,5 hPa 0,0 l/m 0 min 0 min 0 W/m 0,0 km/h (0 Bft) 97,87 %
09.02.2021 21:22 -6,5 C -7,2 C -10,0 C 85 % 1009,5 hPa 0,0 l/m 0 min 0 min 0 W/m 0,0 km/h (0 Bft) 95,74 %
09.02.2021 21:24 -6,5 C -7,2 C -10,0 C 85 % 1009,5 hPa 0,0 l/m 0 min 0 min 0 W/m 0,0 km/h (0 Bft) 97,87 %
09.02.2021 21:26 -6,5 C -7,2 C -10,0 C 85 % 1009,5 hPa 0,0 l/m 0 min 0 min 0 W/m 0,0 km/h (0 Bft) 95,65 %
09.02.2021 21:28 -6,5 C -7,2 C -10,0 C 85 % 1009,5 hPa 0,0 l/m 0 min 0 min 0 W/m 0,0 km/h (0 Bft) 95,74 %
09.02.2021 21:30 -6,5 C -7,2 C -9,4 C 85 % 1009,5 hPa 0,0 l/m 0 min 0 min 0 W/m 0,0 km/h (0 Bft) 97,87 %
09.02.2021 21:32 -6,5 C -7,2 C -9,4 C 85 % 1009,6 hPa 0,0 l/m 0 min 0 min 0 W/m 0,0 km/h (0 Bft) 95,74 %
09.02.2021 21:34 -6,5 C -7,2 C -9,4 C 85 % 1009,6 hPa 0,0 l/m 0 min 0 min 0 W/m 0,0 km/h (0 Bft) 100,00 %
09.02.2021 21:36 -6,5 C -7,2 C -10,0 C 85 % 1009,6 hPa 0,0 l/m 0 min 0 min 0 W/m 0,0 km/h (0 Bft) 100,00 %
09.02.2021 21:38 -6,6 C -7,2 C -10,0 C 85 % 1009,5 hPa 0,0 l/m 0 min 0 min 0 W/m 0,0 km/h (0 Bft) 100,00 %
09.02.2021 21:40 -6,6 C -7,2 C -10,0 C 85 % 1009,5 hPa 0,0 l/m 0 min 0 min 0 W/m 0,0 km/h (0 Bft) 100,00 %
09.02.2021 21:42 -6,6 C -7,2 C -10,0 C 85 % 1009,4 hPa 0,0 l/m 0 min 0 min 0 W/m 0,0 km/h (0 Bft) 100,00 %
09.02.2021 21:44 -6,6 C -7,2 C -10,0 C 85 % 1009,5 hPa 0,0 l/m 0 min 0 min 0 W/m 0,0 km/h (0 Bft) 97,87 %
09.02.2021 21:46 -6,6 C -7,2 C -10,0 C 85 % 1009,5 hPa 0,0 l/m 0 min 0 min 0 W/m 0,0 km/h (0 Bft) 100,00 %
09.02.2021 21:48 -6,6 C -7,2 C -10,0 C 85 % 1009,5 hPa 0,0 l/m 0 min 0 min 0 W/m 0,0 km/h (0 Bft) 93,62 %
09.02.2021 21:50 -6,6 C -7,2 C -10,5 C 85 % 1009,4 hPa 0,0 l/m 0 min 0 min 0 W/m 0,0 km/h (0 Bft) 100,00 %
09.02.2021 21:52 -6,6 C -7,8 C -10,5 C 85 % 1009,5 hPa 0,0 l/m 0 min 0 min 0 W/m 0,0 km/h (0 Bft) 100,00 %
09.02.2021 21:54 -6,7 C -7,8 C -10,5 C 85 % 1009,4 hPa 0,0 l/m 0 min 0 min 0 W/m 0,0 km/h (0 Bft) 100,00 %
09.02.2021 21:56 -6,7 C -7,8 C -10,5 C 85 % 1009,4 hPa 0,0 l/m 0 min 0 min 0 W/m 0,0 km/h (0 Bft) 100,00 %
09.02.2021 21:58 -6,7 C -7,8 C -10,5 C 84 % 1009,4 hPa 0,0 l/m 0 min 0 min 0 W/m 0,0 km/h (0 Bft) 97,87 %
09.02.2021 22:00 -6,8 C -7,8 C -11,1 C 84 % 1009,4 hPa 0,0 l/m 0 min 0 min 0 W/m 0,0 km/h (0 Bft) 100,00 %
09.02.2021 22:02 -6,8 C -7,8 C -11,1 C 84 % 1009,4 hPa 0,0 l/m 0 min 0 min 0 W/m 0,0 km/h (0 Bft) 97,87 %
09.02.2021 22:04 -6,9 C -8,3 C -11,1 C 84 % 1009,4 hPa 0,0 l/m 0 min 0 min 0 W/m 0,0 km/h (0 Bft) 100,00 %
09.02.2021 22:06 -6,9 C -8,3 C -11,1 C 84 % 1009,3 hPa 0,0 l/m 0 min 0 min 0 W/m 0,0 km/h (0 Bft) 100,00 %
09.02.2021 22:08 -7,0 C -8,3 C -11,1 C 84 % 1009,3 hPa 0,0 l/m 0 min 0 min 0 W/m 0,0 km/h (0 Bft) 100,00 %
09.02.2021 22:10 -7,0 C -8,3 C -11,1 C 84 % 1009,3 hPa 0,0 l/m 0 min 0 min 0 W/m 0,0 km/h (0 Bft) 97,14 %
09.02.2021 22:12 -7,0 C -8,3 C -11,1 C 84 % 1009,4 hPa 0,0 l/m 0 min 0 min 0 W/m 0,0 km/h (0 Bft) 100,00 %
09.02.2021 22:14 -7,0 C -8,3 C -11,1 C 84 % 1009,4 hPa 0,0 l/m 0 min 0 min 0 W/m 0,0 km/h (0 Bft) 100,00 %
09.02.2021 22:16 -7,1 C -8,3 C -11,6 C 84 % 1009,4 hPa 0,0 l/m 0 min 0 min 0 W/m 0,0 km/h (0 Bft) 97,87 %
09.02.2021 22:18 -7,1 C -8,3 C -11,6 C 84 % 1009,3 hPa 0,0 l/m 0 min 0 min 0 W/m 0,0 km/h (0 Bft) 97,87 %
09.02.2021 22:20 -7,1 C -8,3 C -11,6 C 84 % 1009,3 hPa 0,0 l/m 0 min 0 min 0 W/m 0,0 km/h (0 Bft) 100,00 %
09.02.2021 22:22 -7,2 C -8,3 C -11,6 C 84 % 1009,3 hPa 0,0 l/m 0 min 0 min 0 W/m 0,0 km/h (0 Bft) 100,00 %
09.02.2021 22:24 -7,2 C -8,9 C -11,6 C 84 % 1009,2 hPa 0,0 l/m 0 min 0 min 0 W/m 0,0 km/h (0 Bft) 100,00 %
09.02.2021 22:26 -7,3 C -8,3 C -11,6 C 83 % 1009,2 hPa 0,0 l/m 0 min 0 min 0 W/m 0,0 km/h (0 Bft) 100,00 %
09.02.2021 22:28 -7,4 C -8,3 C -11,6 C 83 % 1009,2 hPa 0,0 l/m 0 min 0 min 0 W/m 0,0 km/h (0 Bft) 100,00 %
09.02.2021 22:30 -7,5 C -8,3 C -11,6 C 83 % 1009,2 hPa 0,0 l/m 0 min 0 min 0 W/m 0,0 km/h (0 Bft) 100,00 %
09.02.2021 22:32 -7,5 C -8,9 C -11,6 C 84 % 1009,3 hPa 0,0 l/m 0 min 0 min 0 W/m 0,0 km/h (0 Bft) 100,00 %
09.02.2021 22:34 -7,5 C -8,3 C -11,6 C 84 % 1009,3 hPa 0,0 l/m 0 min 0 min 0 W/m 0,0 km/h (0 Bft) 100,00 %
09.02.2021 22:36 -7,6 C -8,3 C -11,6 C 84 % 1009,3 hPa 0,0 l/m 0 min 0 min 0 W/m 0,0 km/h (0 Bft) 52,27 %
09.02.2021 22:38 -7,6 C -8,9 C -11,6 C 84 % 1009,3 hPa 0,0 l/m 0 min 0 min 0 W/m 0,0 km/h (0 Bft) 100,00 %
09.02.2021 22:40 -7,6 C -8,9 C -11,6 C 84 % 1009,3 hPa 0,0 l/m 0 min 0 min 0 W/m 0,0 km/h (0 Bft) 97,87 %
09.02.2021 22:42 -7,6 C -8,9 C -11,6 C 84 % 1009,3 hPa 0,0 l/m 0 min 0 min 0 W/m 0,0 km/h (0 Bft) 100,00 %
09.02.2021 22:44 -7,6 C -8,9 C -11,6 C 84 % 1009,3 hPa 0,0 l/m 0 min 0 min 0 W/m 0,0 km/h (0 Bft) 100,00 %
09.02.2021 22:46 -7,7 C -8,9 C -11,6 C 84 % 1009,3 hPa 0,0 l/m 0 min 0 min 0 W/m 0,0 km/h (0 Bft) 98,18 %
09.02.2021 22:48 -7,7 C -8,9 C -11,6 C 84 % 1009,3 hPa 0,0 l/m 0 min 0 min 0 W/m 0,0 km/h (0 Bft) 97,83 %
09.02.2021 22:50 -7,8 C -8,9 C -11,6 C 84 % 1009,2 hPa 0,0 l/m 0 min 0 min 0 W/m 0,0 km/h (0 Bft) 97,87 %
09.02.2021 22:52 -7,9 C -8,9 C -11,6 C 84 % 1009,2 hPa 0,0 l/m 0 min 0 min 0 W/m 0,0 km/h (0 Bft) 97,87 %
09.02.2021 22:54 -7,9 C -8,9 C -11,6 C 84 % 1009,2 hPa 0,0 l/m 0 min 0 min 0 W/m 0,0 km/h (0 Bft) 100,00 %
09.02.2021 22:56 -7,9 C -8,9 C -11,6 C 84 % 1009,3 hPa 0,0 l/m 0 min 0 min 0 W/m 0,0 km/h (0 Bft) 97,87 %
09.02.2021 22:58 -8,0 C -8,9 C -11,6 C 84 % 1009,3 hPa 0,0 l/m 0 min 0 min 0 W/m 0,0 km/h (0 Bft) 97,87 %
09.02.2021 23:00 -8,0 C -8,9 C -11,6 C 84 % 1009,3 hPa 0,0 l/m 0 min 0 min 0 W/m 0,0 km/h (0 Bft) 63,04 %
09.02.2021 23:02 -8,0 C -8,9 C -11,6 C 84 % 1009,4 hPa 0,0 l/m 0 min 0 min 0 W/m 0,0 km/h (0 Bft) 89,74 %
09.02.2021 23:04 -8,1 C -8,9 C -11,6 C 84 % 1009,4 hPa 0,0 l/m 0 min 0 min 0 W/m 0,0 km/h (0 Bft) 97,87 %
09.02.2021 23:06 -8,1 C -8,9 C -11,6 C 84 % 1009,4 hPa 0,0 l/m 0 min 0 min 0 W/m 0,0 km/h (0 Bft) 93,62 %
09.02.2021 23:08 -8,1 C -8,9 C -11,6 C 84 % 1009,5 hPa 0,0 l/m 0 min 0 min 0 W/m 0,0 km/h (0 Bft) 97,87 %
09.02.2021 23:10 -8,1 C -8,9 C -11,6 C 84 % 1009,5 hPa 0,0 l/m 0 min 0 min 0 W/m 0,0 km/h (0 Bft) 97,87 %
09.02.2021 23:12 -8,2 C -8,9 C -12,2 C 84 % 1009,4 hPa 0,0 l/m 0 min 0 min 0 W/m 0,0 km/h (0 Bft) 97,83 %
09.02.2021 23:14 -8,2 C -9,4 C -12,2 C 84 % 1009,4 hPa 0,0 l/m 0 min 0 min 0 W/m 0,0 km/h (0 Bft) 97,87 %
09.02.2021 23:16 -8,2 C -9,4 C -12,2 C 84 % 1009,4 hPa 0,0 l/m 0 min 0 min 0 W/m 0,0 km/h (0 Bft) 95,74 %
09.02.2021 23:18 -8,2 C -8,9 C -12,2 C 84 % 1009,4 hPa 0,0 l/m 0 min 0 min 0 W/m 0,0 km/h (0 Bft) 97,92 %
09.02.2021 23:20 -8,3 C -9,4 C -12,2 C 84 % 1009,4 hPa 0,0 l/m 0 min 0 min 0 W/m 0,0 km/h (0 Bft) 97,37 %
09.02.2021 23:22 -8,3 C -9,4 C -12,2 C 84 % 1009,4 hPa 0,0 l/m 0 min 0 min 0 W/m 0,0 km/h (0 Bft) 97,87 %
09.02.2021 23:24 -8,4 C -9,4 C -12,2 C 84 % 1009,4 hPa 0,0 l/m 0 min 0 min 0 W/m 0,0 km/h (0 Bft) 95,65 %
09.02.2021 23:26 -8,4 C -9,4 C -12,2 C 84 % 1009,4 hPa 0,0 l/m 0 min 0 min 0 W/m 0,0 km/h (0 Bft) 95,74 %
09.02.2021 23:28 -8,4 C -9,4 C -12,2 C 84 % 1009,4 hPa 0,0 l/m 0 min 0 min 0 W/m 0,0 km/h (0 Bft) 93,62 %
09.02.2021 23:30 -8,4 C -9,4 C -12,2 C 84 % 1009,4 hPa 0,0 l/m 0 min 0 min 0 W/m 0,0 km/h (0 Bft) 97,87 %
09.02.2021 23:32 -8,5 C -9,4 C -12,2 C 84 % 1009,4 hPa 0,0 l/m 0 min 0 min 0 W/m 0,0 km/h (0 Bft) 95,74 %
09.02.2021 23:34 -8,5 C -9,4 C -12,2 C 84 % 1009,4 hPa 0,0 l/m 0 min 0 min 0 W/m 0,0 km/h (0 Bft) 97,87 %
09.02.2021 23:36 -8,5 C -9,4 C -12,7 C 84 % 1009,3 hPa 0,0 l/m 0 min 0 min 0 W/m 0,0 km/h (0 Bft) 97,83 %
09.02.2021 23:38 -8,6 C -9,4 C -12,7 C 84 % 1009,4 hPa 0,0 l/m 0 min 0 min 0 W/m 0,0 km/h (0 Bft) 95,74 %
09.02.2021 23:40 -8,6 C -9,4 C -12,7 C 84 % 1009,4 hPa 0,0 l/m 0 min 0 min 0 W/m 0,0 km/h (0 Bft) 95,74 %
09.02.2021 23:42 -8,6 C -9,4 C -12,7 C 84 % 1009,4 hPa 0,0 l/m 0 min 0 min 0 W/m 0,0 km/h (0 Bft) 97,87 %
09.02.2021 23:44 -8,7 C -9,4 C -12,7 C 84 % 1009,3 hPa 0,0 l/m 0 min 0 min 0 W/m 0,0 km/h (0 Bft) 95,74 %
09.02.2021 23:46 -8,7 C -9,4 C -12,7 C 84 % 1009,4 hPa 0,0 l/m 0 min 0 min 0 W/m 0,0 km/h (0 Bft) 95,74 %
09.02.2021 23:48 -8,7 C -10,0 C -12,7 C 84 % 1009,4 hPa 0,0 l/m 0 min 0 min 0 W/m 0,0 km/h (0 Bft) 97,83 %
09.02.2021 23:50 -8,8 C -10,0 C -12,7 C 84 % 1009,5 hPa 0,0 l/m 0 min 0 min 0 W/m 0,0 km/h (0 Bft) 97,87 %
09.02.2021 23:52 -8,8 C -10,0 C -12,7 C 84 % 1009,5 hPa 0,0 l/m 0 min 0 min 0 W/m 0,0 km/h (0 Bft) 97,87 %
09.02.2021 23:54 -8,9 C -10,0 C -12,7 C 84 % 1009,6 hPa 0,0 l/m 0 min 0 min 0 W/m 0,0 km/h (0 Bft) 100,00 %
09.02.2021 23:56 -8,9 C -10,0 C -12,7 C 84 % 1009,5 hPa 0,0 l/m 0 min 0 min 0 W/m 0,0 km/h (0 Bft) 97,87 %
09.02.2021 23:58 -8,9 C -10,0 C -12,7 C 84 % 1009,5 hPa 0,0 l/m 0 min 0 min 0 W/m 0,0 km/h (0 Bft) 97,87 %
_ Min-Zeit 07:52 07:06 23:36 14:04 00:00 - - - - 00:00 00:02
Minimum _ -9,8 C -10,6 C -12,7 C 68 % 1003,9 hPa - - - - 0,0 km/h (0 Bft) 11,11 %
_ Max-Zeit 14:30 12:40 13:56 09:46 21:32 12:42 14:00 12:08 14:46 01:44 00:00
Maximum _ -0,1 C 5,0 C 5,0 C 92 % 1009,6 hPa 0,2 l/m 2 min 4 min 449 W/m 9,7 km/h
N-NW (2 Bft)
100,00 %
Durchschnitt _ -6,3 C -5,8 C -8,0 C 84 % 1007,5 hPa #2,8 l/m #2:54 h #6 min. 127 W/m 0,1 km/h (0 Bft) 96,65 %
© 2021 W. Hausmann